<?xml version="1.0" encoding="UTF-8" standalone="no" ?>
<gpx xmlns="http://www.topografix.com/GPX/1/1" xmlns:xsi="http://www.w3.org/2001/XMLSchema-instance" xsi:schemaLocation="http://www.topografix.com/GPX/1/1 http://www.topografix.com/GPX/1/1/gpx.xsd" version="1.1" creator="VisuGPX - https://www.visugpx.com">
  <metadata>
    <name>Dieppe si tu m'étais conté et le Camp de César</name>
    <desc><![CDATA[Randonnée de 15 km en boucle à partir du boulevard de Verdun de Dieppe]]></desc>
  </metadata>
  <trk>
    <name><![CDATA[Dieppe si tu m'étais conté et le camp de César_R]]></name>
    <trkseg>
      <trkpt lat="49.92767" lon="1.07663">
        <ele>-7.18</ele>
        <time>2018-11-02T12:40:32Z</time>
      </trkpt>
      <trkpt lat="49.92773" lon="1.07662">
        <ele>-7.38</ele>
        <time>2018-11-02T12:41:20Z</time>
      </trkpt>
      <trkpt lat="49.92777" lon="1.07659">
        <ele>-7.61</ele>
        <time>2018-11-02T12:41:32Z</time>
      </trkpt>
      <trkpt lat="49.92785" lon="1.07652">
        <ele>-8.23</ele>
        <time>2018-11-02T12:41:43Z</time>
      </trkpt>
      <trkpt lat="49.92794" lon="1.07642">
        <ele>-7.14</ele>
        <time>2018-11-02T12:41:57Z</time>
      </trkpt>
      <trkpt lat="49.92798" lon="1.07642">
        <ele>-8.11</ele>
        <time>2018-11-02T12:42:06Z</time>
      </trkpt>
      <trkpt lat="49.92803" lon="1.0764">
        <ele>-7.61</ele>
        <time>2018-11-02T12:42:10Z</time>
      </trkpt>
      <trkpt lat="49.92814" lon="1.07632">
        <ele>-7.45</ele>
        <time>2018-11-02T12:42:23Z</time>
      </trkpt>
      <trkpt lat="49.92815" lon="1.07627">
        <ele>-7.1</ele>
        <time>2018-11-02T12:42:27Z</time>
      </trkpt>
      <trkpt lat="49.9283" lon="1.07616">
        <ele>-9.21</ele>
        <time>2018-11-02T12:42:41Z</time>
      </trkpt>
      <trkpt lat="49.92836" lon="1.07615">
        <ele>-8.4</ele>
        <time>2018-11-02T12:42:46Z</time>
      </trkpt>
      <trkpt lat="49.92849" lon="1.07609">
        <ele>-8.89</ele>
        <time>2018-11-02T12:43:00Z</time>
      </trkpt>
      <trkpt lat="49.92867" lon="1.07609">
        <ele>-9</ele>
        <time>2018-11-02T12:43:14Z</time>
      </trkpt>
      <trkpt lat="49.92879" lon="1.07609">
        <ele>-8.86</ele>
        <time>2018-11-02T12:43:27Z</time>
      </trkpt>
      <trkpt lat="49.92888" lon="1.07608">
        <ele>-8.72</ele>
        <time>2018-11-02T12:43:37Z</time>
      </trkpt>
      <trkpt lat="49.92898" lon="1.07621">
        <ele>-9.09</ele>
        <time>2018-11-02T12:43:52Z</time>
      </trkpt>
      <trkpt lat="49.92907" lon="1.07647">
        <ele>-8.98</ele>
        <time>2018-11-02T12:44:09Z</time>
      </trkpt>
      <trkpt lat="49.92922" lon="1.0767">
        <ele>-9.67</ele>
        <time>2018-11-02T12:44:26Z</time>
      </trkpt>
      <trkpt lat="49.92935" lon="1.07696">
        <ele>-9.36</ele>
        <time>2018-11-02T12:44:43Z</time>
      </trkpt>
      <trkpt lat="49.92948" lon="1.07729">
        <ele>-8.94</ele>
        <time>2018-11-02T12:45:04Z</time>
      </trkpt>
      <trkpt lat="49.92957" lon="1.07747">
        <ele>-9.48</ele>
        <time>2018-11-02T12:45:18Z</time>
      </trkpt>
      <trkpt lat="49.92967" lon="1.07771">
        <ele>-8.76</ele>
        <time>2018-11-02T12:45:35Z</time>
      </trkpt>
      <trkpt lat="49.92981" lon="1.07799">
        <ele>-9.64</ele>
        <time>2018-11-02T12:45:53Z</time>
      </trkpt>
      <trkpt lat="49.92996" lon="1.07826">
        <ele>-9.35</ele>
        <time>2018-11-02T12:46:12Z</time>
      </trkpt>
      <trkpt lat="49.93001" lon="1.07834">
        <ele>-9.01</ele>
        <time>2018-11-02T12:46:26Z</time>
      </trkpt>
      <trkpt lat="49.93001" lon="1.07835">
        <ele>-9.69</ele>
        <time>2018-11-02T12:46:27Z</time>
      </trkpt>
      <trkpt lat="49.93003" lon="1.07837">
        <ele>-8.84</ele>
        <time>2018-11-02T12:46:29Z</time>
      </trkpt>
      <trkpt lat="49.93017" lon="1.07867">
        <ele>-8.95</ele>
        <time>2018-11-02T12:46:49Z</time>
      </trkpt>
      <trkpt lat="49.93032" lon="1.07895">
        <ele>-9.13</ele>
        <time>2018-11-02T12:47:08Z</time>
      </trkpt>
      <trkpt lat="49.93044" lon="1.07921">
        <ele>-9.18</ele>
        <time>2018-11-02T12:47:26Z</time>
      </trkpt>
      <trkpt lat="49.93058" lon="1.07949">
        <ele>-9.15</ele>
        <time>2018-11-02T12:47:46Z</time>
      </trkpt>
      <trkpt lat="49.9306" lon="1.07953">
        <ele>-8.99</ele>
        <time>2018-11-02T12:47:49Z</time>
      </trkpt>
      <trkpt lat="49.93063" lon="1.07957">
        <ele>-9.01</ele>
        <time>2018-11-02T12:47:53Z</time>
      </trkpt>
      <trkpt lat="49.93075" lon="1.07981">
        <ele>-9.38</ele>
        <time>2018-11-02T12:48:09Z</time>
      </trkpt>
      <trkpt lat="49.9308" lon="1.07991">
        <ele>-9.36</ele>
        <time>2018-11-02T12:48:16Z</time>
      </trkpt>
      <trkpt lat="49.93092" lon="1.08013">
        <ele>-9.49</ele>
        <time>2018-11-02T12:48:32Z</time>
      </trkpt>
      <trkpt lat="49.93106" lon="1.08036">
        <ele>-8.91</ele>
        <time>2018-11-02T12:48:50Z</time>
      </trkpt>
      <trkpt lat="49.9312" lon="1.0806">
        <ele>-8.87</ele>
        <time>2018-11-02T12:49:07Z</time>
      </trkpt>
      <trkpt lat="49.93133" lon="1.08085">
        <ele>-9.28</ele>
        <time>2018-11-02T12:49:25Z</time>
      </trkpt>
      <trkpt lat="49.93147" lon="1.08108">
        <ele>-8.87</ele>
        <time>2018-11-02T12:49:42Z</time>
      </trkpt>
      <trkpt lat="49.93161" lon="1.08131">
        <ele>-8.82</ele>
        <time>2018-11-02T12:49:58Z</time>
      </trkpt>
      <trkpt lat="49.93172" lon="1.0815">
        <ele>-8.56</ele>
        <time>2018-11-02T12:50:12Z</time>
      </trkpt>
      <trkpt lat="49.93186" lon="1.08174">
        <ele>-8.71</ele>
        <time>2018-11-02T12:50:29Z</time>
      </trkpt>
      <trkpt lat="49.93198" lon="1.08198">
        <ele>-8.9</ele>
        <time>2018-11-02T12:50:46Z</time>
      </trkpt>
      <trkpt lat="49.93209" lon="1.08219">
        <ele>-9.59</ele>
        <time>2018-11-02T12:51:01Z</time>
      </trkpt>
      <trkpt lat="49.9322" lon="1.08242">
        <ele>-9.1</ele>
        <time>2018-11-02T12:51:17Z</time>
      </trkpt>
      <trkpt lat="49.93228" lon="1.08257">
        <ele>-8.83</ele>
        <time>2018-11-02T12:51:27Z</time>
      </trkpt>
      <trkpt lat="49.93226" lon="1.08265">
        <ele>-8.75</ele>
        <time>2018-11-02T12:51:34Z</time>
      </trkpt>
      <trkpt lat="49.93217" lon="1.08285">
        <ele>-8.21</ele>
        <time>2018-11-02T12:51:50Z</time>
      </trkpt>
      <trkpt lat="49.93203" lon="1.08306">
        <ele>-7.92</ele>
        <time>2018-11-02T12:52:07Z</time>
      </trkpt>
      <trkpt lat="49.93181" lon="1.08332">
        <ele>-7.75</ele>
        <time>2018-11-02T12:52:27Z</time>
      </trkpt>
      <trkpt lat="49.9317" lon="1.08346">
        <ele>-8.36</ele>
        <time>2018-11-02T12:52:43Z</time>
      </trkpt>
      <trkpt lat="49.93167" lon="1.08357">
        <ele>-8.36</ele>
        <time>2018-11-02T12:52:59Z</time>
      </trkpt>
      <trkpt lat="49.93166" lon="1.08363">
        <ele>-8.69</ele>
        <time>2018-11-02T12:53:27Z</time>
      </trkpt>
      <trkpt lat="49.93167" lon="1.08368">
        <ele>-8.43</ele>
        <time>2018-11-02T12:53:47Z</time>
      </trkpt>
      <trkpt lat="49.9317" lon="1.08367">
        <ele>-9.42</ele>
        <time>2018-11-02T12:54:16Z</time>
      </trkpt>
      <trkpt lat="49.93174" lon="1.08366">
        <ele>-8.79</ele>
        <time>2018-11-02T12:54:41Z</time>
      </trkpt>
      <trkpt lat="49.9317" lon="1.08369">
        <ele>-8.81</ele>
        <time>2018-11-02T12:55:05Z</time>
      </trkpt>
      <trkpt lat="49.93169" lon="1.0837">
        <ele>-8.48</ele>
        <time>2018-11-02T12:55:28Z</time>
      </trkpt>
      <trkpt lat="49.93171" lon="1.08372">
        <ele>-8.51</ele>
        <time>2018-11-02T12:55:30Z</time>
      </trkpt>
      <trkpt lat="49.93173" lon="1.08376">
        <ele>-8.17</ele>
        <time>2018-11-02T12:55:33Z</time>
      </trkpt>
      <trkpt lat="49.93182" lon="1.08398">
        <ele>-8.73</ele>
        <time>2018-11-02T12:55:49Z</time>
      </trkpt>
      <trkpt lat="49.93187" lon="1.08416">
        <ele>-7.88</ele>
        <time>2018-11-02T12:56:02Z</time>
      </trkpt>
      <trkpt lat="49.9319" lon="1.08423">
        <ele>-7.81</ele>
        <time>2018-11-02T12:56:07Z</time>
      </trkpt>
      <trkpt lat="49.9319" lon="1.08445">
        <ele>-8.42</ele>
        <time>2018-11-02T12:56:23Z</time>
      </trkpt>
      <trkpt lat="49.93187" lon="1.08466">
        <ele>-9.06</ele>
        <time>2018-11-02T12:56:39Z</time>
      </trkpt>
      <trkpt lat="49.93185" lon="1.08472">
        <ele>-8.79</ele>
        <time>2018-11-02T12:56:49Z</time>
      </trkpt>
      <trkpt lat="49.93184" lon="1.08476">
        <ele>-8.92</ele>
        <time>2018-11-02T12:56:54Z</time>
      </trkpt>
      <trkpt lat="49.93178" lon="1.08484">
        <ele>-9.41</ele>
        <time>2018-11-02T12:57:14Z</time>
      </trkpt>
      <trkpt lat="49.93172" lon="1.0848">
        <ele>-9.61</ele>
        <time>2018-11-02T12:57:30Z</time>
      </trkpt>
      <trkpt lat="49.93163" lon="1.08492">
        <ele>-9.88</ele>
        <time>2018-11-02T12:57:44Z</time>
      </trkpt>
      <trkpt lat="49.93149" lon="1.08497">
        <ele>-9.59</ele>
        <time>2018-11-02T12:57:56Z</time>
      </trkpt>
      <trkpt lat="49.93128" lon="1.085">
        <ele>-10.01</ele>
        <time>2018-11-02T12:58:12Z</time>
      </trkpt>
      <trkpt lat="49.93126" lon="1.085">
        <ele>-10.07</ele>
        <time>2018-11-02T12:58:14Z</time>
      </trkpt>
      <trkpt lat="49.93117" lon="1.085">
        <ele>-9.12</ele>
        <time>2018-11-02T12:58:21Z</time>
      </trkpt>
      <trkpt lat="49.93097" lon="1.08507">
        <ele>-10.11</ele>
        <time>2018-11-02T12:58:38Z</time>
      </trkpt>
      <trkpt lat="49.93096" lon="1.08507">
        <ele>-9.86</ele>
        <time>2018-11-02T12:58:39Z</time>
      </trkpt>
      <trkpt lat="49.93075" lon="1.08508">
        <ele>-10.45</ele>
        <time>2018-11-02T12:58:56Z</time>
      </trkpt>
      <trkpt lat="49.93057" lon="1.0851">
        <ele>-10.19</ele>
        <time>2018-11-02T12:59:12Z</time>
      </trkpt>
      <trkpt lat="49.93055" lon="1.08511">
        <ele>-10.21</ele>
        <time>2018-11-02T12:59:14Z</time>
      </trkpt>
      <trkpt lat="49.93037" lon="1.08506">
        <ele>-10.65</ele>
        <time>2018-11-02T12:59:30Z</time>
      </trkpt>
      <trkpt lat="49.93031" lon="1.08506">
        <ele>-10.52</ele>
        <time>2018-11-02T12:59:35Z</time>
      </trkpt>
      <trkpt lat="49.93011" lon="1.08499">
        <ele>-10.81</ele>
        <time>2018-11-02T12:59:51Z</time>
      </trkpt>
      <trkpt lat="49.93007" lon="1.08497">
        <ele>-11.48</ele>
        <time>2018-11-02T12:59:54Z</time>
      </trkpt>
      <trkpt lat="49.92999" lon="1.08477">
        <ele>-10.31</ele>
        <time>2018-11-02T13:00:08Z</time>
      </trkpt>
      <trkpt lat="49.92994" lon="1.0847">
        <ele>-10.24</ele>
        <time>2018-11-02T13:00:21Z</time>
      </trkpt>
      <trkpt lat="49.92989" lon="1.08465">
        <ele>-10.1</ele>
        <time>2018-11-02T13:00:27Z</time>
      </trkpt>
      <trkpt lat="49.92972" lon="1.08446">
        <ele>-9.87</ele>
        <time>2018-11-02T13:00:46Z</time>
      </trkpt>
      <trkpt lat="49.92953" lon="1.08423">
        <ele>-10.55</ele>
        <time>2018-11-02T13:01:08Z</time>
      </trkpt>
      <trkpt lat="49.92942" lon="1.08403">
        <ele>-10.23</ele>
        <time>2018-11-02T13:01:26Z</time>
      </trkpt>
      <trkpt lat="49.92931" lon="1.08384">
        <ele>-10.63</ele>
        <time>2018-11-02T13:01:42Z</time>
      </trkpt>
      <trkpt lat="49.92922" lon="1.08363">
        <ele>-11.35</ele>
        <time>2018-11-02T13:01:58Z</time>
      </trkpt>
      <trkpt lat="49.92916" lon="1.08348">
        <ele>-10.97</ele>
        <time>2018-11-02T13:02:15Z</time>
      </trkpt>
      <trkpt lat="49.92916" lon="1.08345">
        <ele>-11.17</ele>
        <time>2018-11-02T13:02:17Z</time>
      </trkpt>
      <trkpt lat="49.92913" lon="1.08337">
        <ele>-11.34</ele>
        <time>2018-11-02T13:02:20Z</time>
      </trkpt>
      <trkpt lat="49.92909" lon="1.08335">
        <ele>-11.74</ele>
        <time>2018-11-02T13:02:24Z</time>
      </trkpt>
      <trkpt lat="49.92899" lon="1.08326">
        <ele>-12.13</ele>
        <time>2018-11-02T13:02:41Z</time>
      </trkpt>
      <trkpt lat="49.92894" lon="1.08304">
        <ele>-11.93</ele>
        <time>2018-11-02T13:03:03Z</time>
      </trkpt>
      <trkpt lat="49.92887" lon="1.08279">
        <ele>-11.94</ele>
        <time>2018-11-02T13:03:22Z</time>
      </trkpt>
      <trkpt lat="49.92884" lon="1.08254">
        <ele>-12.2</ele>
        <time>2018-11-02T13:03:38Z</time>
      </trkpt>
      <trkpt lat="49.92882" lon="1.08252">
        <ele>-11.97</ele>
        <time>2018-11-02T13:03:40Z</time>
      </trkpt>
      <trkpt lat="49.92878" lon="1.08244">
        <ele>-12.16</ele>
        <time>2018-11-02T13:03:46Z</time>
      </trkpt>
      <trkpt lat="49.92866" lon="1.08214">
        <ele>-12.01</ele>
        <time>2018-11-02T13:04:03Z</time>
      </trkpt>
      <trkpt lat="49.9286" lon="1.08207">
        <ele>-11.77</ele>
        <time>2018-11-02T13:04:08Z</time>
      </trkpt>
      <trkpt lat="49.92851" lon="1.08184">
        <ele>-12.63</ele>
        <time>2018-11-02T13:04:24Z</time>
      </trkpt>
      <trkpt lat="49.92841" lon="1.08161">
        <ele>-12.75</ele>
        <time>2018-11-02T13:04:39Z</time>
      </trkpt>
      <trkpt lat="49.92832" lon="1.08146">
        <ele>-12.74</ele>
        <time>2018-11-02T13:04:50Z</time>
      </trkpt>
      <trkpt lat="49.9282" lon="1.08119">
        <ele>-12.43</ele>
        <time>2018-11-02T13:05:09Z</time>
      </trkpt>
      <trkpt lat="49.92807" lon="1.08098">
        <ele>-12.14</ele>
        <time>2018-11-02T13:05:24Z</time>
      </trkpt>
      <trkpt lat="49.92801" lon="1.08093">
        <ele>-12.6</ele>
        <time>2018-11-02T13:05:40Z</time>
      </trkpt>
      <trkpt lat="49.92791" lon="1.08082">
        <ele>-12.95</ele>
        <time>2018-11-02T13:05:57Z</time>
      </trkpt>
      <trkpt lat="49.92789" lon="1.08077">
        <ele>-13.08</ele>
        <time>2018-11-02T13:06:00Z</time>
      </trkpt>
      <trkpt lat="49.92775" lon="1.08058">
        <ele>-12.51</ele>
        <time>2018-11-02T13:06:16Z</time>
      </trkpt>
      <trkpt lat="49.92761" lon="1.08041">
        <ele>-12.5</ele>
        <time>2018-11-02T13:06:33Z</time>
      </trkpt>
      <trkpt lat="49.92758" lon="1.08038">
        <ele>-12.33</ele>
        <time>2018-11-02T13:06:36Z</time>
      </trkpt>
      <trkpt lat="49.9275" lon="1.08028">
        <ele>-13.32</ele>
        <time>2018-11-02T13:06:50Z</time>
      </trkpt>
      <trkpt lat="49.9274" lon="1.08023">
        <ele>-13.03</ele>
        <time>2018-11-02T13:07:00Z</time>
      </trkpt>
      <trkpt lat="49.92732" lon="1.08012">
        <ele>-13.14</ele>
        <time>2018-11-02T13:07:09Z</time>
      </trkpt>
      <trkpt lat="49.92721" lon="1.07996">
        <ele>-12.92</ele>
        <time>2018-11-02T13:07:20Z</time>
      </trkpt>
      <trkpt lat="49.92709" lon="1.07989">
        <ele>-13.22</ele>
        <time>2018-11-02T13:07:32Z</time>
      </trkpt>
      <trkpt lat="49.92688" lon="1.07987">
        <ele>-12.97</ele>
        <time>2018-11-02T13:07:51Z</time>
      </trkpt>
      <trkpt lat="49.92677" lon="1.07992">
        <ele>-12.82</ele>
        <time>2018-11-02T13:08:03Z</time>
      </trkpt>
      <trkpt lat="49.92665" lon="1.08008">
        <ele>-12.74</ele>
        <time>2018-11-02T13:08:17Z</time>
      </trkpt>
      <trkpt lat="49.92664" lon="1.08011">
        <ele>-12.64</ele>
        <time>2018-11-02T13:08:20Z</time>
      </trkpt>
      <trkpt lat="49.92659" lon="1.08022">
        <ele>-12.16</ele>
        <time>2018-11-02T13:08:38Z</time>
      </trkpt>
      <trkpt lat="49.92659" lon="1.08025">
        <ele>-12.32</ele>
        <time>2018-11-02T13:09:00Z</time>
      </trkpt>
      <trkpt lat="49.92662" lon="1.08017">
        <ele>-13.03</ele>
        <time>2018-11-02T13:09:20Z</time>
      </trkpt>
      <trkpt lat="49.92669" lon="1.08011">
        <ele>-12.96</ele>
        <time>2018-11-02T13:09:36Z</time>
      </trkpt>
      <trkpt lat="49.92658" lon="1.08022">
        <ele>-13.11</ele>
        <time>2018-11-02T13:09:56Z</time>
      </trkpt>
      <trkpt lat="49.92661" lon="1.08043">
        <ele>-12.83</ele>
        <time>2018-11-02T13:10:13Z</time>
      </trkpt>
      <trkpt lat="49.92662" lon="1.08049">
        <ele>-12.8</ele>
        <time>2018-11-02T13:10:16Z</time>
      </trkpt>
      <trkpt lat="49.92661" lon="1.08055">
        <ele>-12.37</ele>
        <time>2018-11-02T13:10:20Z</time>
      </trkpt>
      <trkpt lat="49.9266" lon="1.08065">
        <ele>-12.67</ele>
        <time>2018-11-02T13:10:25Z</time>
      </trkpt>
      <trkpt lat="49.9266" lon="1.08091">
        <ele>-12.25</ele>
        <time>2018-11-02T13:10:39Z</time>
      </trkpt>
      <trkpt lat="49.9266" lon="1.08093">
        <ele>-12.08</ele>
        <time>2018-11-02T13:10:40Z</time>
      </trkpt>
      <trkpt lat="49.92662" lon="1.08104">
        <ele>-12.99</ele>
        <time>2018-11-02T13:10:46Z</time>
      </trkpt>
      <trkpt lat="49.92661" lon="1.0811">
        <ele>-11.85</ele>
        <time>2018-11-02T13:10:48Z</time>
      </trkpt>
      <trkpt lat="49.92661" lon="1.08116">
        <ele>-11.85</ele>
        <time>2018-11-02T13:10:50Z</time>
      </trkpt>
      <trkpt lat="49.92657" lon="1.08151">
        <ele>-12.05</ele>
        <time>2018-11-02T13:11:10Z</time>
      </trkpt>
      <trkpt lat="49.9266" lon="1.08186">
        <ele>-13.28</ele>
        <time>2018-11-02T13:11:27Z</time>
      </trkpt>
      <trkpt lat="49.92662" lon="1.082">
        <ele>-13.89</ele>
        <time>2018-11-02T13:11:36Z</time>
      </trkpt>
      <trkpt lat="49.9267" lon="1.08219">
        <ele>-13.47</ele>
        <time>2018-11-02T13:11:50Z</time>
      </trkpt>
      <trkpt lat="49.92685" lon="1.08246">
        <ele>-13.4</ele>
        <time>2018-11-02T13:12:08Z</time>
      </trkpt>
      <trkpt lat="49.92695" lon="1.08271">
        <ele>-13.16</ele>
        <time>2018-11-02T13:12:24Z</time>
      </trkpt>
      <trkpt lat="49.92706" lon="1.08292">
        <ele>-13.3</ele>
        <time>2018-11-02T13:12:38Z</time>
      </trkpt>
      <trkpt lat="49.92714" lon="1.08311">
        <ele>-14.28</ele>
        <time>2018-11-02T13:12:51Z</time>
      </trkpt>
      <trkpt lat="49.92716" lon="1.08316">
        <ele>-13.7</ele>
        <time>2018-11-02T13:12:55Z</time>
      </trkpt>
      <trkpt lat="49.92724" lon="1.0833">
        <ele>-13.64</ele>
        <time>2018-11-02T13:13:09Z</time>
      </trkpt>
      <trkpt lat="49.92738" lon="1.0835">
        <ele>-13.12</ele>
        <time>2018-11-02T13:13:23Z</time>
      </trkpt>
      <trkpt lat="49.92742" lon="1.0837">
        <ele>-13.12</ele>
        <time>2018-11-02T13:13:40Z</time>
      </trkpt>
      <trkpt lat="49.92744" lon="1.08389">
        <ele>-12.92</ele>
        <time>2018-11-02T13:13:51Z</time>
      </trkpt>
      <trkpt lat="49.92746" lon="1.08408">
        <ele>-13.07</ele>
        <time>2018-11-02T13:14:02Z</time>
      </trkpt>
      <trkpt lat="49.92746" lon="1.08419">
        <ele>-12.82</ele>
        <time>2018-11-02T13:14:09Z</time>
      </trkpt>
      <trkpt lat="49.92747" lon="1.08427">
        <ele>-12.6</ele>
        <time>2018-11-02T13:14:13Z</time>
      </trkpt>
      <trkpt lat="49.92745" lon="1.08453">
        <ele>-12.84</ele>
        <time>2018-11-02T13:14:28Z</time>
      </trkpt>
      <trkpt lat="49.92746" lon="1.0847">
        <ele>-12.25</ele>
        <time>2018-11-02T13:14:42Z</time>
      </trkpt>
      <trkpt lat="49.92739" lon="1.08507">
        <ele>-12.78</ele>
        <time>2018-11-02T13:14:57Z</time>
      </trkpt>
      <trkpt lat="49.92741" lon="1.08512">
        <ele>-13.19</ele>
        <time>2018-11-02T13:15:01Z</time>
      </trkpt>
      <trkpt lat="49.9274" lon="1.08531">
        <ele>-12.43</ele>
        <time>2018-11-02T13:15:10Z</time>
      </trkpt>
      <trkpt lat="49.92733" lon="1.08556">
        <ele>-12.46</ele>
        <time>2018-11-02T13:15:28Z</time>
      </trkpt>
      <trkpt lat="49.9273" lon="1.08565">
        <ele>-12.82</ele>
        <time>2018-11-02T13:15:34Z</time>
      </trkpt>
      <trkpt lat="49.92731" lon="1.08573">
        <ele>-13.18</ele>
        <time>2018-11-02T13:15:51Z</time>
      </trkpt>
      <trkpt lat="49.92752" lon="1.08569">
        <ele>-14.29</ele>
        <time>2018-11-02T13:16:07Z</time>
      </trkpt>
      <trkpt lat="49.92765" lon="1.08556">
        <ele>-13.93</ele>
        <time>2018-11-02T13:16:17Z</time>
      </trkpt>
      <trkpt lat="49.92779" lon="1.08554">
        <ele>-14.73</ele>
        <time>2018-11-02T13:16:31Z</time>
      </trkpt>
      <trkpt lat="49.92788" lon="1.08561">
        <ele>-14.83</ele>
        <time>2018-11-02T13:16:39Z</time>
      </trkpt>
      <trkpt lat="49.92791" lon="1.08564">
        <ele>-14.11</ele>
        <time>2018-11-02T13:16:42Z</time>
      </trkpt>
      <trkpt lat="49.92806" lon="1.08566">
        <ele>-14.27</ele>
        <time>2018-11-02T13:16:56Z</time>
      </trkpt>
      <trkpt lat="49.9281" lon="1.08565">
        <ele>-14.15</ele>
        <time>2018-11-02T13:16:59Z</time>
      </trkpt>
      <trkpt lat="49.92824" lon="1.08575">
        <ele>-14.06</ele>
        <time>2018-11-02T13:17:12Z</time>
      </trkpt>
      <trkpt lat="49.92834" lon="1.08591">
        <ele>-13.87</ele>
        <time>2018-11-02T13:17:23Z</time>
      </trkpt>
      <trkpt lat="49.92835" lon="1.08593">
        <ele>-13.85</ele>
        <time>2018-11-02T13:17:25Z</time>
      </trkpt>
      <trkpt lat="49.92838" lon="1.086">
        <ele>-12.94</ele>
        <time>2018-11-02T13:17:38Z</time>
      </trkpt>
      <trkpt lat="49.9284" lon="1.08603">
        <ele>-12.81</ele>
        <time>2018-11-02T13:17:41Z</time>
      </trkpt>
      <trkpt lat="49.92844" lon="1.08621">
        <ele>-12.3</ele>
        <time>2018-11-02T13:17:58Z</time>
      </trkpt>
      <trkpt lat="49.92841" lon="1.08633">
        <ele>-10.73</ele>
        <time>2018-11-02T13:18:11Z</time>
      </trkpt>
      <trkpt lat="49.9284" lon="1.08641">
        <ele>-9.6</ele>
        <time>2018-11-02T13:18:18Z</time>
      </trkpt>
      <trkpt lat="49.9284" lon="1.08642">
        <ele>-8.2</ele>
        <time>2018-11-02T13:18:21Z</time>
      </trkpt>
      <trkpt lat="49.92844" lon="1.08643">
        <ele>-7.84</ele>
        <time>2018-11-02T13:18:28Z</time>
      </trkpt>
      <trkpt lat="49.92853" lon="1.08644">
        <ele>-6.63</ele>
        <time>2018-11-02T13:18:53Z</time>
      </trkpt>
      <trkpt lat="49.92861" lon="1.08661">
        <ele>-3.08</ele>
        <time>2018-11-02T13:19:12Z</time>
      </trkpt>
      <trkpt lat="49.92867" lon="1.08671">
        <ele>-0.4</ele>
        <time>2018-11-02T13:19:24Z</time>
      </trkpt>
      <trkpt lat="49.9287" lon="1.08689">
        <ele>2.65</ele>
        <time>2018-11-02T13:19:42Z</time>
      </trkpt>
      <trkpt lat="49.92871" lon="1.08708">
        <ele>5.7</ele>
        <time>2018-11-02T13:19:59Z</time>
      </trkpt>
      <trkpt lat="49.9288" lon="1.08716">
        <ele>8.01</ele>
        <time>2018-11-02T13:20:14Z</time>
      </trkpt>
      <trkpt lat="49.92895" lon="1.08718">
        <ele>10.45</ele>
        <time>2018-11-02T13:20:28Z</time>
      </trkpt>
      <trkpt lat="49.92898" lon="1.08718">
        <ele>11.3</ele>
        <time>2018-11-02T13:20:31Z</time>
      </trkpt>
      <trkpt lat="49.92902" lon="1.08719">
        <ele>11.25</ele>
        <time>2018-11-02T13:20:35Z</time>
      </trkpt>
      <trkpt lat="49.92905" lon="1.08719">
        <ele>10.87</ele>
        <time>2018-11-02T13:20:38Z</time>
      </trkpt>
      <trkpt lat="49.92907" lon="1.0872">
        <ele>11.15</ele>
        <time>2018-11-02T13:20:40Z</time>
      </trkpt>
      <trkpt lat="49.9291" lon="1.08721">
        <ele>11.89</ele>
        <time>2018-11-02T13:20:43Z</time>
      </trkpt>
      <trkpt lat="49.92925" lon="1.08715">
        <ele>12.35</ele>
        <time>2018-11-02T13:20:58Z</time>
      </trkpt>
      <trkpt lat="49.92929" lon="1.08708">
        <ele>12.84</ele>
        <time>2018-11-02T13:21:12Z</time>
      </trkpt>
      <trkpt lat="49.92932" lon="1.08705">
        <ele>12.57</ele>
        <time>2018-11-02T13:21:16Z</time>
      </trkpt>
      <trkpt lat="49.92942" lon="1.08699">
        <ele>12.67</ele>
        <time>2018-11-02T13:21:26Z</time>
      </trkpt>
      <trkpt lat="49.92955" lon="1.08695">
        <ele>12.26</ele>
        <time>2018-11-02T13:21:39Z</time>
      </trkpt>
      <trkpt lat="49.92957" lon="1.08696">
        <ele>12.59</ele>
        <time>2018-11-02T13:21:41Z</time>
      </trkpt>
      <trkpt lat="49.92961" lon="1.08699">
        <ele>13.1</ele>
        <time>2018-11-02T13:21:47Z</time>
      </trkpt>
      <trkpt lat="49.92965" lon="1.08704">
        <ele>13.1</ele>
        <time>2018-11-02T13:21:57Z</time>
      </trkpt>
      <trkpt lat="49.92974" lon="1.08722">
        <ele>13.75</ele>
        <time>2018-11-02T13:22:10Z</time>
      </trkpt>
      <trkpt lat="49.92975" lon="1.08726">
        <ele>15.15</ele>
        <time>2018-11-02T13:22:13Z</time>
      </trkpt>
      <trkpt lat="49.92984" lon="1.08738">
        <ele>14.18</ele>
        <time>2018-11-02T13:22:25Z</time>
      </trkpt>
      <trkpt lat="49.92987" lon="1.08748">
        <ele>14.99</ele>
        <time>2018-11-02T13:22:39Z</time>
      </trkpt>
      <trkpt lat="49.92987" lon="1.08756">
        <ele>14.59</ele>
        <time>2018-11-02T13:22:51Z</time>
      </trkpt>
      <trkpt lat="49.92985" lon="1.08784">
        <ele>15.46</ele>
        <time>2018-11-02T13:23:09Z</time>
      </trkpt>
      <trkpt lat="49.92984" lon="1.08794">
        <ele>15.92</ele>
        <time>2018-11-02T13:23:17Z</time>
      </trkpt>
      <trkpt lat="49.92983" lon="1.08802">
        <ele>15.9</ele>
        <time>2018-11-02T13:23:22Z</time>
      </trkpt>
      <trkpt lat="49.92981" lon="1.08825">
        <ele>16.29</ele>
        <time>2018-11-02T13:23:35Z</time>
      </trkpt>
      <trkpt lat="49.92982" lon="1.08828">
        <ele>16.02</ele>
        <time>2018-11-02T13:23:37Z</time>
      </trkpt>
      <trkpt lat="49.92984" lon="1.0883">
        <ele>15.85</ele>
        <time>2018-11-02T13:23:39Z</time>
      </trkpt>
      <trkpt lat="49.92988" lon="1.08832">
        <ele>16.4</ele>
        <time>2018-11-02T13:23:42Z</time>
      </trkpt>
      <trkpt lat="49.92992" lon="1.08834">
        <ele>16.31</ele>
        <time>2018-11-02T13:23:46Z</time>
      </trkpt>
      <trkpt lat="49.93011" lon="1.08827">
        <ele>15.82</ele>
        <time>2018-11-02T13:24:04Z</time>
      </trkpt>
      <trkpt lat="49.93015" lon="1.08829">
        <ele>15.65</ele>
        <time>2018-11-02T13:24:08Z</time>
      </trkpt>
      <trkpt lat="49.93032" lon="1.08827">
        <ele>15.78</ele>
        <time>2018-11-02T13:24:23Z</time>
      </trkpt>
      <trkpt lat="49.93051" lon="1.08826">
        <ele>15.8</ele>
        <time>2018-11-02T13:24:38Z</time>
      </trkpt>
      <trkpt lat="49.93052" lon="1.08826">
        <ele>15.5</ele>
        <time>2018-11-02T13:24:39Z</time>
      </trkpt>
      <trkpt lat="49.9307" lon="1.08823">
        <ele>15.64</ele>
        <time>2018-11-02T13:24:54Z</time>
      </trkpt>
      <trkpt lat="49.93074" lon="1.08823">
        <ele>15.78</ele>
        <time>2018-11-02T13:24:58Z</time>
      </trkpt>
      <trkpt lat="49.93085" lon="1.08822">
        <ele>16.02</ele>
        <time>2018-11-02T13:25:07Z</time>
      </trkpt>
      <trkpt lat="49.93089" lon="1.08821">
        <ele>15.93</ele>
        <time>2018-11-02T13:25:10Z</time>
      </trkpt>
      <trkpt lat="49.93094" lon="1.08823">
        <ele>15.73</ele>
        <time>2018-11-02T13:25:15Z</time>
      </trkpt>
      <trkpt lat="49.931" lon="1.08828">
        <ele>15.79</ele>
        <time>2018-11-02T13:25:21Z</time>
      </trkpt>
      <trkpt lat="49.93103" lon="1.08831">
        <ele>16.44</ele>
        <time>2018-11-02T13:25:25Z</time>
      </trkpt>
      <trkpt lat="49.93107" lon="1.08834">
        <ele>16.27</ele>
        <time>2018-11-02T13:25:29Z</time>
      </trkpt>
      <trkpt lat="49.93112" lon="1.08841">
        <ele>16.36</ele>
        <time>2018-11-02T13:25:34Z</time>
      </trkpt>
      <trkpt lat="49.9312" lon="1.0885">
        <ele>16.01</ele>
        <time>2018-11-02T13:25:42Z</time>
      </trkpt>
      <trkpt lat="49.93125" lon="1.0886">
        <ele>16.09</ele>
        <time>2018-11-02T13:25:51Z</time>
      </trkpt>
      <trkpt lat="49.93141" lon="1.08852">
        <ele>16.33</ele>
        <time>2018-11-02T13:26:06Z</time>
      </trkpt>
      <trkpt lat="49.93143" lon="1.0885">
        <ele>16.05</ele>
        <time>2018-11-02T13:26:08Z</time>
      </trkpt>
      <trkpt lat="49.93145" lon="1.08847">
        <ele>15.65</ele>
        <time>2018-11-02T13:26:11Z</time>
      </trkpt>
      <trkpt lat="49.9315" lon="1.08844">
        <ele>14.94</ele>
        <time>2018-11-02T13:26:15Z</time>
      </trkpt>
      <trkpt lat="49.93156" lon="1.08837">
        <ele>16.07</ele>
        <time>2018-11-02T13:26:21Z</time>
      </trkpt>
      <trkpt lat="49.93162" lon="1.08817">
        <ele>16.09</ele>
        <time>2018-11-02T13:26:34Z</time>
      </trkpt>
      <trkpt lat="49.93167" lon="1.08812">
        <ele>16.37</ele>
        <time>2018-11-02T13:26:48Z</time>
      </trkpt>
      <trkpt lat="49.93177" lon="1.08809">
        <ele>16.79</ele>
        <time>2018-11-02T13:27:02Z</time>
      </trkpt>
      <trkpt lat="49.93185" lon="1.08808">
        <ele>16.9</ele>
        <time>2018-11-02T13:27:14Z</time>
      </trkpt>
      <trkpt lat="49.93193" lon="1.08812">
        <ele>16.59</ele>
        <time>2018-11-02T13:27:21Z</time>
      </trkpt>
      <trkpt lat="49.93204" lon="1.08822">
        <ele>16.8</ele>
        <time>2018-11-02T13:27:39Z</time>
      </trkpt>
      <trkpt lat="49.93199" lon="1.0883">
        <ele>17.18</ele>
        <time>2018-11-02T13:27:47Z</time>
      </trkpt>
      <trkpt lat="49.93198" lon="1.08856">
        <ele>16.77</ele>
        <time>2018-11-02T13:28:05Z</time>
      </trkpt>
      <trkpt lat="49.93196" lon="1.08869">
        <ele>18.45</ele>
        <time>2018-11-02T13:28:25Z</time>
      </trkpt>
      <trkpt lat="49.93198" lon="1.08874">
        <ele>18.38</ele>
        <time>2018-11-02T13:28:51Z</time>
      </trkpt>
      <trkpt lat="49.93189" lon="1.08865">
        <ele>18.09</ele>
        <time>2018-11-02T13:29:06Z</time>
      </trkpt>
      <trkpt lat="49.93192" lon="1.08873">
        <ele>17.85</ele>
        <time>2018-11-02T13:29:31Z</time>
      </trkpt>
      <trkpt lat="49.93195" lon="1.08877">
        <ele>18.14</ele>
        <time>2018-11-02T13:29:49Z</time>
      </trkpt>
      <trkpt lat="49.932" lon="1.08891">
        <ele>17.73</ele>
        <time>2018-11-02T13:30:05Z</time>
      </trkpt>
      <trkpt lat="49.93207" lon="1.08916">
        <ele>18.78</ele>
        <time>2018-11-02T13:30:23Z</time>
      </trkpt>
      <trkpt lat="49.93211" lon="1.08942">
        <ele>18.73</ele>
        <time>2018-11-02T13:30:41Z</time>
      </trkpt>
      <trkpt lat="49.93225" lon="1.08939">
        <ele>18.76</ele>
        <time>2018-11-02T13:30:55Z</time>
      </trkpt>
      <trkpt lat="49.93229" lon="1.08949">
        <ele>18.66</ele>
        <time>2018-11-02T13:31:08Z</time>
      </trkpt>
      <trkpt lat="49.93232" lon="1.08958">
        <ele>18.78</ele>
        <time>2018-11-02T13:31:14Z</time>
      </trkpt>
      <trkpt lat="49.93235" lon="1.08967">
        <ele>18.96</ele>
        <time>2018-11-02T13:31:20Z</time>
      </trkpt>
      <trkpt lat="49.93243" lon="1.08988">
        <ele>19.27</ele>
        <time>2018-11-02T13:31:34Z</time>
      </trkpt>
      <trkpt lat="49.93244" lon="1.0899">
        <ele>19.3</ele>
        <time>2018-11-02T13:31:35Z</time>
      </trkpt>
      <trkpt lat="49.93247" lon="1.08998">
        <ele>18.78</ele>
        <time>2018-11-02T13:31:40Z</time>
      </trkpt>
      <trkpt lat="49.93256" lon="1.09021">
        <ele>20.05</ele>
        <time>2018-11-02T13:31:55Z</time>
      </trkpt>
      <trkpt lat="49.93265" lon="1.09045">
        <ele>20.11</ele>
        <time>2018-11-02T13:32:10Z</time>
      </trkpt>
      <trkpt lat="49.93274" lon="1.09066">
        <ele>20.86</ele>
        <time>2018-11-02T13:32:23Z</time>
      </trkpt>
      <trkpt lat="49.93281" lon="1.09088">
        <ele>20.64</ele>
        <time>2018-11-02T13:32:38Z</time>
      </trkpt>
      <trkpt lat="49.93282" lon="1.09089">
        <ele>20.61</ele>
        <time>2018-11-02T13:32:39Z</time>
      </trkpt>
      <trkpt lat="49.93292" lon="1.09108">
        <ele>21.41</ele>
        <time>2018-11-02T13:32:53Z</time>
      </trkpt>
      <trkpt lat="49.93299" lon="1.09128">
        <ele>22.43</ele>
        <time>2018-11-02T13:33:05Z</time>
      </trkpt>
      <trkpt lat="49.93305" lon="1.09148">
        <ele>22.64</ele>
        <time>2018-11-02T13:33:19Z</time>
      </trkpt>
      <trkpt lat="49.93308" lon="1.09158">
        <ele>22.68</ele>
        <time>2018-11-02T13:33:25Z</time>
      </trkpt>
      <trkpt lat="49.9331" lon="1.09167">
        <ele>22.9</ele>
        <time>2018-11-02T13:33:30Z</time>
      </trkpt>
      <trkpt lat="49.93311" lon="1.09174">
        <ele>22.83</ele>
        <time>2018-11-02T13:33:34Z</time>
      </trkpt>
      <trkpt lat="49.93319" lon="1.09194">
        <ele>23.27</ele>
        <time>2018-11-02T13:33:48Z</time>
      </trkpt>
      <trkpt lat="49.9333" lon="1.09214">
        <ele>23.26</ele>
        <time>2018-11-02T13:34:01Z</time>
      </trkpt>
      <trkpt lat="49.93335" lon="1.09223">
        <ele>23.74</ele>
        <time>2018-11-02T13:34:08Z</time>
      </trkpt>
      <trkpt lat="49.93336" lon="1.09231">
        <ele>23.31</ele>
        <time>2018-11-02T13:34:12Z</time>
      </trkpt>
      <trkpt lat="49.93336" lon="1.0924">
        <ele>23.87</ele>
        <time>2018-11-02T13:34:17Z</time>
      </trkpt>
      <trkpt lat="49.93339" lon="1.09269">
        <ele>23.56</ele>
        <time>2018-11-02T13:34:33Z</time>
      </trkpt>
      <trkpt lat="49.93343" lon="1.09298">
        <ele>24.7</ele>
        <time>2018-11-02T13:34:48Z</time>
      </trkpt>
      <trkpt lat="49.93346" lon="1.09319">
        <ele>25.5</ele>
        <time>2018-11-02T13:35:01Z</time>
      </trkpt>
      <trkpt lat="49.93345" lon="1.09336">
        <ele>25.94</ele>
        <time>2018-11-02T13:35:15Z</time>
      </trkpt>
      <trkpt lat="49.93345" lon="1.0934">
        <ele>25.69</ele>
        <time>2018-11-02T13:35:18Z</time>
      </trkpt>
      <trkpt lat="49.93344" lon="1.09355">
        <ele>25.98</ele>
        <time>2018-11-02T13:35:31Z</time>
      </trkpt>
      <trkpt lat="49.93342" lon="1.0938">
        <ele>26.56</ele>
        <time>2018-11-02T13:35:45Z</time>
      </trkpt>
      <trkpt lat="49.93342" lon="1.09403">
        <ele>27.37</ele>
        <time>2018-11-02T13:35:58Z</time>
      </trkpt>
      <trkpt lat="49.93341" lon="1.09433">
        <ele>27.71</ele>
        <time>2018-11-02T13:36:14Z</time>
      </trkpt>
      <trkpt lat="49.93342" lon="1.09451">
        <ele>28.2</ele>
        <time>2018-11-02T13:36:24Z</time>
      </trkpt>
      <trkpt lat="49.93342" lon="1.09456">
        <ele>28.49</ele>
        <time>2018-11-02T13:36:27Z</time>
      </trkpt>
      <trkpt lat="49.93344" lon="1.09488">
        <ele>29.15</ele>
        <time>2018-11-02T13:36:44Z</time>
      </trkpt>
      <trkpt lat="49.93344" lon="1.09495">
        <ele>28.63</ele>
        <time>2018-11-02T13:36:48Z</time>
      </trkpt>
      <trkpt lat="49.93347" lon="1.09507">
        <ele>29.19</ele>
        <time>2018-11-02T13:36:55Z</time>
      </trkpt>
      <trkpt lat="49.93349" lon="1.09536">
        <ele>30.11</ele>
        <time>2018-11-02T13:37:12Z</time>
      </trkpt>
      <trkpt lat="49.9335" lon="1.09538">
        <ele>30.23</ele>
        <time>2018-11-02T13:37:13Z</time>
      </trkpt>
      <trkpt lat="49.93351" lon="1.09543">
        <ele>30.73</ele>
        <time>2018-11-02T13:37:16Z</time>
      </trkpt>
      <trkpt lat="49.93355" lon="1.09565">
        <ele>31.1</ele>
        <time>2018-11-02T13:37:28Z</time>
      </trkpt>
      <trkpt lat="49.93362" lon="1.09587">
        <ele>31.14</ele>
        <time>2018-11-02T13:37:41Z</time>
      </trkpt>
      <trkpt lat="49.93363" lon="1.09591">
        <ele>31.08</ele>
        <time>2018-11-02T13:37:44Z</time>
      </trkpt>
      <trkpt lat="49.93365" lon="1.09596">
        <ele>31.67</ele>
        <time>2018-11-02T13:37:47Z</time>
      </trkpt>
      <trkpt lat="49.93367" lon="1.09603">
        <ele>31.37</ele>
        <time>2018-11-02T13:37:51Z</time>
      </trkpt>
      <trkpt lat="49.93375" lon="1.09625">
        <ele>31.62</ele>
        <time>2018-11-02T13:38:05Z</time>
      </trkpt>
      <trkpt lat="49.9338" lon="1.09634">
        <ele>31.73</ele>
        <time>2018-11-02T13:38:11Z</time>
      </trkpt>
      <trkpt lat="49.93386" lon="1.09648">
        <ele>31.95</ele>
        <time>2018-11-02T13:38:19Z</time>
      </trkpt>
      <trkpt lat="49.93388" lon="1.09654">
        <ele>32.32</ele>
        <time>2018-11-02T13:38:23Z</time>
      </trkpt>
      <trkpt lat="49.93398" lon="1.0968">
        <ele>32.47</ele>
        <time>2018-11-02T13:38:39Z</time>
      </trkpt>
      <trkpt lat="49.93403" lon="1.09692">
        <ele>32.61</ele>
        <time>2018-11-02T13:38:51Z</time>
      </trkpt>
      <trkpt lat="49.9341" lon="1.09713">
        <ele>32.34</ele>
        <time>2018-11-02T13:39:04Z</time>
      </trkpt>
      <trkpt lat="49.93414" lon="1.09723">
        <ele>32.53</ele>
        <time>2018-11-02T13:39:10Z</time>
      </trkpt>
      <trkpt lat="49.93422" lon="1.09746">
        <ele>33.49</ele>
        <time>2018-11-02T13:39:24Z</time>
      </trkpt>
      <trkpt lat="49.93423" lon="1.0975">
        <ele>33.5</ele>
        <time>2018-11-02T13:39:27Z</time>
      </trkpt>
      <trkpt lat="49.93431" lon="1.09771">
        <ele>32.92</ele>
        <time>2018-11-02T13:39:40Z</time>
      </trkpt>
      <trkpt lat="49.93436" lon="1.09791">
        <ele>33.33</ele>
        <time>2018-11-02T13:39:52Z</time>
      </trkpt>
      <trkpt lat="49.93437" lon="1.09795">
        <ele>33.65</ele>
        <time>2018-11-02T13:39:54Z</time>
      </trkpt>
      <trkpt lat="49.93444" lon="1.09817">
        <ele>33.43</ele>
        <time>2018-11-02T13:40:08Z</time>
      </trkpt>
      <trkpt lat="49.93445" lon="1.09821">
        <ele>34.11</ele>
        <time>2018-11-02T13:40:11Z</time>
      </trkpt>
      <trkpt lat="49.93449" lon="1.09838">
        <ele>33.98</ele>
        <time>2018-11-02T13:40:20Z</time>
      </trkpt>
      <trkpt lat="49.93452" lon="1.09852">
        <ele>34.22</ele>
        <time>2018-11-02T13:40:28Z</time>
      </trkpt>
      <trkpt lat="49.93454" lon="1.09862">
        <ele>33.83</ele>
        <time>2018-11-02T13:40:34Z</time>
      </trkpt>
      <trkpt lat="49.9346" lon="1.09891">
        <ele>33.64</ele>
        <time>2018-11-02T13:40:50Z</time>
      </trkpt>
      <trkpt lat="49.93463" lon="1.09913">
        <ele>34.21</ele>
        <time>2018-11-02T13:41:02Z</time>
      </trkpt>
      <trkpt lat="49.93467" lon="1.09938">
        <ele>34.29</ele>
        <time>2018-11-02T13:41:16Z</time>
      </trkpt>
      <trkpt lat="49.93469" lon="1.09951">
        <ele>34</ele>
        <time>2018-11-02T13:41:24Z</time>
      </trkpt>
      <trkpt lat="49.93471" lon="1.09966">
        <ele>34.51</ele>
        <time>2018-11-02T13:41:31Z</time>
      </trkpt>
      <trkpt lat="49.93473" lon="1.09991">
        <ele>34.62</ele>
        <time>2018-11-02T13:41:44Z</time>
      </trkpt>
      <trkpt lat="49.93473" lon="1.10007">
        <ele>35.03</ele>
        <time>2018-11-02T13:41:52Z</time>
      </trkpt>
      <trkpt lat="49.93474" lon="1.10035">
        <ele>35.93</ele>
        <time>2018-11-02T13:42:07Z</time>
      </trkpt>
      <trkpt lat="49.93477" lon="1.10061">
        <ele>35.69</ele>
        <time>2018-11-02T13:42:21Z</time>
      </trkpt>
      <trkpt lat="49.93478" lon="1.1007">
        <ele>35.39</ele>
        <time>2018-11-02T13:42:26Z</time>
      </trkpt>
      <trkpt lat="49.93478" lon="1.10073">
        <ele>36.07</ele>
        <time>2018-11-02T13:42:28Z</time>
      </trkpt>
      <trkpt lat="49.93477" lon="1.10076">
        <ele>35.85</ele>
        <time>2018-11-02T13:42:30Z</time>
      </trkpt>
      <trkpt lat="49.93477" lon="1.10082">
        <ele>35.88</ele>
        <time>2018-11-02T13:42:33Z</time>
      </trkpt>
      <trkpt lat="49.93477" lon="1.10087">
        <ele>36.15</ele>
        <time>2018-11-02T13:42:37Z</time>
      </trkpt>
      <trkpt lat="49.93477" lon="1.10115">
        <ele>36.89</ele>
        <time>2018-11-02T13:42:52Z</time>
      </trkpt>
      <trkpt lat="49.93476" lon="1.10126">
        <ele>36.46</ele>
        <time>2018-11-02T13:42:59Z</time>
      </trkpt>
      <trkpt lat="49.93475" lon="1.10137">
        <ele>36.11</ele>
        <time>2018-11-02T13:43:05Z</time>
      </trkpt>
      <trkpt lat="49.93473" lon="1.10144">
        <ele>35.75</ele>
        <time>2018-11-02T13:43:09Z</time>
      </trkpt>
      <trkpt lat="49.93468" lon="1.10158">
        <ele>38.23</ele>
        <time>2018-11-02T13:43:20Z</time>
      </trkpt>
      <trkpt lat="49.93469" lon="1.10161">
        <ele>39.38</ele>
        <time>2018-11-02T13:43:22Z</time>
      </trkpt>
      <trkpt lat="49.93475" lon="1.10169">
        <ele>38.5</ele>
        <time>2018-11-02T13:43:30Z</time>
      </trkpt>
      <trkpt lat="49.93479" lon="1.10176">
        <ele>39.59</ele>
        <time>2018-11-02T13:43:46Z</time>
      </trkpt>
      <trkpt lat="49.93485" lon="1.10185">
        <ele>39.57</ele>
        <time>2018-11-02T13:44:01Z</time>
      </trkpt>
      <trkpt lat="49.9349" lon="1.10192">
        <ele>38.7</ele>
        <time>2018-11-02T13:44:20Z</time>
      </trkpt>
      <trkpt lat="49.935" lon="1.10204">
        <ele>38.94</ele>
        <time>2018-11-02T13:44:32Z</time>
      </trkpt>
      <trkpt lat="49.93508" lon="1.10214">
        <ele>39.65</ele>
        <time>2018-11-02T13:44:41Z</time>
      </trkpt>
      <trkpt lat="49.93519" lon="1.1024">
        <ele>38.78</ele>
        <time>2018-11-02T13:44:57Z</time>
      </trkpt>
      <trkpt lat="49.93521" lon="1.10248">
        <ele>38.57</ele>
        <time>2018-11-02T13:45:02Z</time>
      </trkpt>
      <trkpt lat="49.93524" lon="1.10258">
        <ele>38.84</ele>
        <time>2018-11-02T13:45:11Z</time>
      </trkpt>
      <trkpt lat="49.93527" lon="1.10279">
        <ele>38.35</ele>
        <time>2018-11-02T13:45:22Z</time>
      </trkpt>
      <trkpt lat="49.93527" lon="1.10297">
        <ele>37.78</ele>
        <time>2018-11-02T13:45:31Z</time>
      </trkpt>
      <trkpt lat="49.93524" lon="1.10325">
        <ele>37.35</ele>
        <time>2018-11-02T13:45:45Z</time>
      </trkpt>
      <trkpt lat="49.93521" lon="1.10345">
        <ele>36.5</ele>
        <time>2018-11-02T13:45:57Z</time>
      </trkpt>
      <trkpt lat="49.9352" lon="1.10368">
        <ele>36.89</ele>
        <time>2018-11-02T13:46:10Z</time>
      </trkpt>
      <trkpt lat="49.93518" lon="1.10376">
        <ele>36.72</ele>
        <time>2018-11-02T13:46:14Z</time>
      </trkpt>
      <trkpt lat="49.93519" lon="1.10397">
        <ele>36.4</ele>
        <time>2018-11-02T13:46:24Z</time>
      </trkpt>
      <trkpt lat="49.93521" lon="1.10412">
        <ele>36.19</ele>
        <time>2018-11-02T13:46:32Z</time>
      </trkpt>
      <trkpt lat="49.93524" lon="1.10422">
        <ele>36.25</ele>
        <time>2018-11-02T13:46:38Z</time>
      </trkpt>
      <trkpt lat="49.93524" lon="1.10431">
        <ele>35.89</ele>
        <time>2018-11-02T13:46:43Z</time>
      </trkpt>
      <trkpt lat="49.93525" lon="1.10436">
        <ele>36.31</ele>
        <time>2018-11-02T13:46:46Z</time>
      </trkpt>
      <trkpt lat="49.93529" lon="1.10459">
        <ele>35.76</ele>
        <time>2018-11-02T13:46:58Z</time>
      </trkpt>
      <trkpt lat="49.93531" lon="1.10472">
        <ele>35.5</ele>
        <time>2018-11-02T13:47:06Z</time>
      </trkpt>
      <trkpt lat="49.93533" lon="1.105">
        <ele>35.9</ele>
        <time>2018-11-02T13:47:20Z</time>
      </trkpt>
      <trkpt lat="49.93533" lon="1.10509">
        <ele>36.02</ele>
        <time>2018-11-02T13:47:24Z</time>
      </trkpt>
      <trkpt lat="49.93532" lon="1.10515">
        <ele>35.94</ele>
        <time>2018-11-02T13:47:27Z</time>
      </trkpt>
      <trkpt lat="49.93533" lon="1.10533">
        <ele>35.35</ele>
        <time>2018-11-02T13:47:37Z</time>
      </trkpt>
      <trkpt lat="49.93533" lon="1.10542">
        <ele>35.38</ele>
        <time>2018-11-02T13:47:41Z</time>
      </trkpt>
      <trkpt lat="49.93532" lon="1.10568">
        <ele>35.62</ele>
        <time>2018-11-02T13:47:54Z</time>
      </trkpt>
      <trkpt lat="49.93532" lon="1.1059">
        <ele>34.84</ele>
        <time>2018-11-02T13:48:05Z</time>
      </trkpt>
      <trkpt lat="49.93546" lon="1.10598">
        <ele>32.85</ele>
        <time>2018-11-02T13:48:24Z</time>
      </trkpt>
      <trkpt lat="49.93567" lon="1.10599">
        <ele>32.03</ele>
        <time>2018-11-02T13:48:43Z</time>
      </trkpt>
      <trkpt lat="49.93589" lon="1.10604">
        <ele>29.82</ele>
        <time>2018-11-02T13:49:04Z</time>
      </trkpt>
      <trkpt lat="49.93602" lon="1.10606">
        <ele>28.7</ele>
        <time>2018-11-02T13:49:13Z</time>
      </trkpt>
      <trkpt lat="49.93614" lon="1.10623">
        <ele>28.16</ele>
        <time>2018-11-02T13:49:25Z</time>
      </trkpt>
      <trkpt lat="49.93615" lon="1.10625">
        <ele>28.27</ele>
        <time>2018-11-02T13:49:26Z</time>
      </trkpt>
      <trkpt lat="49.93624" lon="1.10639">
        <ele>27.29</ele>
        <time>2018-11-02T13:49:40Z</time>
      </trkpt>
      <trkpt lat="49.93629" lon="1.10657">
        <ele>26.41</ele>
        <time>2018-11-02T13:49:50Z</time>
      </trkpt>
      <trkpt lat="49.9364" lon="1.10674">
        <ele>25.64</ele>
        <time>2018-11-02T13:50:03Z</time>
      </trkpt>
      <trkpt lat="49.93651" lon="1.10697">
        <ele>24.69</ele>
        <time>2018-11-02T13:50:16Z</time>
      </trkpt>
      <trkpt lat="49.93659" lon="1.10711">
        <ele>24.08</ele>
        <time>2018-11-02T13:50:27Z</time>
      </trkpt>
      <trkpt lat="49.9366" lon="1.10713">
        <ele>23.58</ele>
        <time>2018-11-02T13:50:29Z</time>
      </trkpt>
      <trkpt lat="49.93662" lon="1.10717">
        <ele>23.44</ele>
        <time>2018-11-02T13:50:32Z</time>
      </trkpt>
      <trkpt lat="49.93663" lon="1.10724">
        <ele>22.69</ele>
        <time>2018-11-02T13:50:36Z</time>
      </trkpt>
      <trkpt lat="49.93666" lon="1.10749">
        <ele>21.17</ele>
        <time>2018-11-02T13:50:50Z</time>
      </trkpt>
      <trkpt lat="49.93662" lon="1.10766">
        <ele>19.64</ele>
        <time>2018-11-02T13:51:00Z</time>
      </trkpt>
      <trkpt lat="49.93657" lon="1.10782">
        <ele>19.76</ele>
        <time>2018-11-02T13:51:14Z</time>
      </trkpt>
      <trkpt lat="49.9366" lon="1.10794">
        <ele>16.56</ele>
        <time>2018-11-02T13:51:36Z</time>
      </trkpt>
      <trkpt lat="49.93667" lon="1.10812">
        <ele>13.03</ele>
        <time>2018-11-02T13:51:51Z</time>
      </trkpt>
      <trkpt lat="49.93668" lon="1.10814">
        <ele>13.45</ele>
        <time>2018-11-02T13:51:52Z</time>
      </trkpt>
      <trkpt lat="49.93673" lon="1.10826">
        <ele>12.1</ele>
        <time>2018-11-02T13:52:00Z</time>
      </trkpt>
      <trkpt lat="49.93674" lon="1.10833">
        <ele>11.67</ele>
        <time>2018-11-02T13:52:04Z</time>
      </trkpt>
      <trkpt lat="49.93681" lon="1.10845">
        <ele>9.51</ele>
        <time>2018-11-02T13:52:16Z</time>
      </trkpt>
      <trkpt lat="49.93685" lon="1.1086">
        <ele>7.88</ele>
        <time>2018-11-02T13:52:26Z</time>
      </trkpt>
      <trkpt lat="49.93687" lon="1.10866">
        <ele>7.96</ele>
        <time>2018-11-02T13:52:30Z</time>
      </trkpt>
      <trkpt lat="49.93692" lon="1.1089">
        <ele>6.1</ele>
        <time>2018-11-02T13:52:41Z</time>
      </trkpt>
      <trkpt lat="49.93693" lon="1.10892">
        <ele>5.81</ele>
        <time>2018-11-02T13:52:42Z</time>
      </trkpt>
      <trkpt lat="49.93699" lon="1.10912">
        <ele>4.09</ele>
        <time>2018-11-02T13:52:58Z</time>
      </trkpt>
      <trkpt lat="49.93705" lon="1.10923">
        <ele>3.1</ele>
        <time>2018-11-02T13:53:05Z</time>
      </trkpt>
      <trkpt lat="49.93709" lon="1.10935">
        <ele>2.58</ele>
        <time>2018-11-02T13:53:14Z</time>
      </trkpt>
      <trkpt lat="49.93725" lon="1.10955">
        <ele>-0.6</ele>
        <time>2018-11-02T13:53:31Z</time>
      </trkpt>
      <trkpt lat="49.93731" lon="1.10957">
        <ele>-1.59</ele>
        <time>2018-11-02T13:53:45Z</time>
      </trkpt>
      <trkpt lat="49.93734" lon="1.10958">
        <ele>-2.53</ele>
        <time>2018-11-02T13:53:49Z</time>
      </trkpt>
      <trkpt lat="49.93739" lon="1.10958">
        <ele>-2.57</ele>
        <time>2018-11-02T13:53:53Z</time>
      </trkpt>
      <trkpt lat="49.93743" lon="1.10956">
        <ele>-3.46</ele>
        <time>2018-11-02T13:53:57Z</time>
      </trkpt>
      <trkpt lat="49.93746" lon="1.10956">
        <ele>-3.79</ele>
        <time>2018-11-02T13:54:00Z</time>
      </trkpt>
      <trkpt lat="49.93753" lon="1.10951">
        <ele>-4.5</ele>
        <time>2018-11-02T13:54:14Z</time>
      </trkpt>
      <trkpt lat="49.93757" lon="1.10944">
        <ele>-7.57</ele>
        <time>2018-11-02T13:54:29Z</time>
      </trkpt>
      <trkpt lat="49.93771" lon="1.10932">
        <ele>-9.42</ele>
        <time>2018-11-02T13:54:47Z</time>
      </trkpt>
      <trkpt lat="49.93777" lon="1.10921">
        <ele>-9.71</ele>
        <time>2018-11-02T13:55:03Z</time>
      </trkpt>
      <trkpt lat="49.93771" lon="1.10916">
        <ele>-9.94</ele>
        <time>2018-11-02T13:55:21Z</time>
      </trkpt>
      <trkpt lat="49.93777" lon="1.10919">
        <ele>-9.36</ele>
        <time>2018-11-02T13:55:29Z</time>
      </trkpt>
      <trkpt lat="49.93782" lon="1.10922">
        <ele>-9.52</ele>
        <time>2018-11-02T13:55:47Z</time>
      </trkpt>
      <trkpt lat="49.93787" lon="1.10933">
        <ele>-9.12</ele>
        <time>2018-11-02T13:56:06Z</time>
      </trkpt>
      <trkpt lat="49.93794" lon="1.1095">
        <ele>-9.97</ele>
        <time>2018-11-02T13:56:22Z</time>
      </trkpt>
      <trkpt lat="49.93798" lon="1.10958">
        <ele>-9.08</ele>
        <time>2018-11-02T13:56:38Z</time>
      </trkpt>
      <trkpt lat="49.93803" lon="1.10964">
        <ele>-8.23</ele>
        <time>2018-11-02T13:56:45Z</time>
      </trkpt>
      <trkpt lat="49.93813" lon="1.10978">
        <ele>-6.14</ele>
        <time>2018-11-02T13:56:58Z</time>
      </trkpt>
      <trkpt lat="49.93819" lon="1.10985">
        <ele>-5.77</ele>
        <time>2018-11-02T13:57:15Z</time>
      </trkpt>
      <trkpt lat="49.93819" lon="1.10999">
        <ele>-3.93</ele>
        <time>2018-11-02T13:57:25Z</time>
      </trkpt>
      <trkpt lat="49.93818" lon="1.11003">
        <ele>-3.74</ele>
        <time>2018-11-02T13:57:28Z</time>
      </trkpt>
      <trkpt lat="49.93818" lon="1.11013">
        <ele>-2.53</ele>
        <time>2018-11-02T13:57:36Z</time>
      </trkpt>
      <trkpt lat="49.93815" lon="1.11022">
        <ele>-1.72</ele>
        <time>2018-11-02T13:57:42Z</time>
      </trkpt>
      <trkpt lat="49.93811" lon="1.1104">
        <ele>0.52</ele>
        <time>2018-11-02T13:57:55Z</time>
      </trkpt>
      <trkpt lat="49.93808" lon="1.11054">
        <ele>1.92</ele>
        <time>2018-11-02T13:58:05Z</time>
      </trkpt>
      <trkpt lat="49.93807" lon="1.11069">
        <ele>3.78</ele>
        <time>2018-11-02T13:58:15Z</time>
      </trkpt>
      <trkpt lat="49.93804" lon="1.11092">
        <ele>6.66</ele>
        <time>2018-11-02T13:58:30Z</time>
      </trkpt>
      <trkpt lat="49.93802" lon="1.11097">
        <ele>5.95</ele>
        <time>2018-11-02T13:58:33Z</time>
      </trkpt>
      <trkpt lat="49.93801" lon="1.11115">
        <ele>7.46</ele>
        <time>2018-11-02T13:58:46Z</time>
      </trkpt>
      <trkpt lat="49.93802" lon="1.1113">
        <ele>8.64</ele>
        <time>2018-11-02T13:59:02Z</time>
      </trkpt>
      <trkpt lat="49.93803" lon="1.11139">
        <ele>9.56</ele>
        <time>2018-11-02T13:59:08Z</time>
      </trkpt>
      <trkpt lat="49.93806" lon="1.11158">
        <ele>12.29</ele>
        <time>2018-11-02T13:59:22Z</time>
      </trkpt>
      <trkpt lat="49.93809" lon="1.11182">
        <ele>14.34</ele>
        <time>2018-11-02T13:59:38Z</time>
      </trkpt>
      <trkpt lat="49.93812" lon="1.112">
        <ele>16.29</ele>
        <time>2018-11-02T13:59:51Z</time>
      </trkpt>
      <trkpt lat="49.93816" lon="1.11222">
        <ele>17.72</ele>
        <time>2018-11-02T14:00:03Z</time>
      </trkpt>
      <trkpt lat="49.93818" lon="1.11238">
        <ele>18.25</ele>
        <time>2018-11-02T14:00:23Z</time>
      </trkpt>
      <trkpt lat="49.93819" lon="1.11243">
        <ele>18.85</ele>
        <time>2018-11-02T14:00:26Z</time>
      </trkpt>
      <trkpt lat="49.93821" lon="1.11265">
        <ele>20.27</ele>
        <time>2018-11-02T14:00:42Z</time>
      </trkpt>
      <trkpt lat="49.93824" lon="1.11271">
        <ele>21.17</ele>
        <time>2018-11-02T14:00:47Z</time>
      </trkpt>
      <trkpt lat="49.93831" lon="1.11296">
        <ele>22.72</ele>
        <time>2018-11-02T14:01:06Z</time>
      </trkpt>
      <trkpt lat="49.93835" lon="1.1132">
        <ele>24.8</ele>
        <time>2018-11-02T14:01:23Z</time>
      </trkpt>
      <trkpt lat="49.93839" lon="1.11346">
        <ele>27.12</ele>
        <time>2018-11-02T14:01:41Z</time>
      </trkpt>
      <trkpt lat="49.93839" lon="1.11357">
        <ele>27.3</ele>
        <time>2018-11-02T14:01:47Z</time>
      </trkpt>
      <trkpt lat="49.93838" lon="1.11363">
        <ele>27.79</ele>
        <time>2018-11-02T14:01:49Z</time>
      </trkpt>
      <trkpt lat="49.93842" lon="1.11387">
        <ele>28.76</ele>
        <time>2018-11-02T14:02:03Z</time>
      </trkpt>
      <trkpt lat="49.93844" lon="1.11408">
        <ele>29.78</ele>
        <time>2018-11-02T14:02:16Z</time>
      </trkpt>
      <trkpt lat="49.93849" lon="1.11434">
        <ele>30.99</ele>
        <time>2018-11-02T14:02:33Z</time>
      </trkpt>
      <trkpt lat="49.9385" lon="1.11465">
        <ele>33.62</ele>
        <time>2018-11-02T14:02:49Z</time>
      </trkpt>
      <trkpt lat="49.93852" lon="1.1148">
        <ele>34.73</ele>
        <time>2018-11-02T14:02:56Z</time>
      </trkpt>
      <trkpt lat="49.93852" lon="1.11504">
        <ele>34.4</ele>
        <time>2018-11-02T14:03:10Z</time>
      </trkpt>
      <trkpt lat="49.93854" lon="1.11524">
        <ele>34.91</ele>
        <time>2018-11-02T14:03:25Z</time>
      </trkpt>
      <trkpt lat="49.93853" lon="1.11539">
        <ele>34.43</ele>
        <time>2018-11-02T14:03:33Z</time>
      </trkpt>
      <trkpt lat="49.93853" lon="1.11557">
        <ele>34.65</ele>
        <time>2018-11-02T14:03:43Z</time>
      </trkpt>
      <trkpt lat="49.93848" lon="1.11575">
        <ele>33.82</ele>
        <time>2018-11-02T14:04:02Z</time>
      </trkpt>
      <trkpt lat="49.93844" lon="1.11581">
        <ele>34.27</ele>
        <time>2018-11-02T14:04:38Z</time>
      </trkpt>
      <trkpt lat="49.93847" lon="1.11583">
        <ele>34.01</ele>
        <time>2018-11-02T14:04:50Z</time>
      </trkpt>
      <trkpt lat="49.93856" lon="1.11587">
        <ele>35.3</ele>
        <time>2018-11-02T14:05:05Z</time>
      </trkpt>
      <trkpt lat="49.9386" lon="1.11595">
        <ele>37.08</ele>
        <time>2018-11-02T14:05:23Z</time>
      </trkpt>
      <trkpt lat="49.93862" lon="1.11608">
        <ele>39.92</ele>
        <time>2018-11-02T14:05:39Z</time>
      </trkpt>
      <trkpt lat="49.93861" lon="1.11622">
        <ele>40.1</ele>
        <time>2018-11-02T14:05:53Z</time>
      </trkpt>
      <trkpt lat="49.9386" lon="1.11637">
        <ele>40.23</ele>
        <time>2018-11-02T14:06:12Z</time>
      </trkpt>
      <trkpt lat="49.93859" lon="1.11646">
        <ele>39.98</ele>
        <time>2018-11-02T14:06:31Z</time>
      </trkpt>
      <trkpt lat="49.93857" lon="1.11667">
        <ele>40.84</ele>
        <time>2018-11-02T14:06:49Z</time>
      </trkpt>
      <trkpt lat="49.93856" lon="1.11677">
        <ele>40.32</ele>
        <time>2018-11-02T14:07:30Z</time>
      </trkpt>
      <trkpt lat="49.93857" lon="1.11681">
        <ele>40.58</ele>
        <time>2018-11-02T14:08:00Z</time>
      </trkpt>
      <trkpt lat="49.93855" lon="1.11684">
        <ele>40.58</ele>
        <time>2018-11-02T14:08:16Z</time>
      </trkpt>
      <trkpt lat="49.93852" lon="1.11701">
        <ele>39.41</ele>
        <time>2018-11-02T14:08:30Z</time>
      </trkpt>
      <trkpt lat="49.93851" lon="1.11718">
        <ele>39.95</ele>
        <time>2018-11-02T14:08:45Z</time>
      </trkpt>
      <trkpt lat="49.93849" lon="1.11731">
        <ele>39.44</ele>
        <time>2018-11-02T14:09:02Z</time>
      </trkpt>
      <trkpt lat="49.93848" lon="1.11747">
        <ele>38.87</ele>
        <time>2018-11-02T14:09:17Z</time>
      </trkpt>
      <trkpt lat="49.93843" lon="1.11774">
        <ele>38.36</ele>
        <time>2018-11-02T14:09:38Z</time>
      </trkpt>
      <trkpt lat="49.93841" lon="1.11804">
        <ele>37.74</ele>
        <time>2018-11-02T14:09:59Z</time>
      </trkpt>
      <trkpt lat="49.93837" lon="1.11832">
        <ele>38.59</ele>
        <time>2018-11-02T14:10:14Z</time>
      </trkpt>
      <trkpt lat="49.93834" lon="1.11856">
        <ele>38.79</ele>
        <time>2018-11-02T14:10:30Z</time>
      </trkpt>
      <trkpt lat="49.93832" lon="1.11881">
        <ele>37.77</ele>
        <time>2018-11-02T14:10:47Z</time>
      </trkpt>
      <trkpt lat="49.93831" lon="1.11912">
        <ele>38.61</ele>
        <time>2018-11-02T14:11:03Z</time>
      </trkpt>
      <trkpt lat="49.93831" lon="1.1194">
        <ele>37.52</ele>
        <time>2018-11-02T14:11:19Z</time>
      </trkpt>
      <trkpt lat="49.9383" lon="1.11957">
        <ele>37.54</ele>
        <time>2018-11-02T14:11:26Z</time>
      </trkpt>
      <trkpt lat="49.93832" lon="1.1198">
        <ele>37.27</ele>
        <time>2018-11-02T14:11:41Z</time>
      </trkpt>
      <trkpt lat="49.93835" lon="1.12017">
        <ele>36.29</ele>
        <time>2018-11-02T14:12:03Z</time>
      </trkpt>
      <trkpt lat="49.93835" lon="1.12047">
        <ele>36.06</ele>
        <time>2018-11-02T14:12:23Z</time>
      </trkpt>
      <trkpt lat="49.93831" lon="1.12085">
        <ele>35.38</ele>
        <time>2018-11-02T14:12:43Z</time>
      </trkpt>
      <trkpt lat="49.93832" lon="1.12107">
        <ele>34.88</ele>
        <time>2018-11-02T14:12:59Z</time>
      </trkpt>
      <trkpt lat="49.93832" lon="1.1211">
        <ele>35.35</ele>
        <time>2018-11-02T14:13:02Z</time>
      </trkpt>
      <trkpt lat="49.93833" lon="1.12139">
        <ele>33.87</ele>
        <time>2018-11-02T14:13:23Z</time>
      </trkpt>
      <trkpt lat="49.93836" lon="1.12159">
        <ele>34.26</ele>
        <time>2018-11-02T14:13:44Z</time>
      </trkpt>
      <trkpt lat="49.93836" lon="1.1219">
        <ele>34.28</ele>
        <time>2018-11-02T14:14:03Z</time>
      </trkpt>
      <trkpt lat="49.93836" lon="1.12194">
        <ele>34.41</ele>
        <time>2018-11-02T14:14:04Z</time>
      </trkpt>
      <trkpt lat="49.93837" lon="1.12201">
        <ele>34.24</ele>
        <time>2018-11-02T14:14:07Z</time>
      </trkpt>
      <trkpt lat="49.93837" lon="1.12226">
        <ele>34.45</ele>
        <time>2018-11-02T14:14:16Z</time>
      </trkpt>
      <trkpt lat="49.93841" lon="1.12251">
        <ele>35.02</ele>
        <time>2018-11-02T14:14:31Z</time>
      </trkpt>
      <trkpt lat="49.93847" lon="1.12281">
        <ele>35.72</ele>
        <time>2018-11-02T14:14:49Z</time>
      </trkpt>
      <trkpt lat="49.93852" lon="1.12314">
        <ele>36.34</ele>
        <time>2018-11-02T14:15:07Z</time>
      </trkpt>
      <trkpt lat="49.93862" lon="1.12337">
        <ele>36.23</ele>
        <time>2018-11-02T14:15:26Z</time>
      </trkpt>
      <trkpt lat="49.93862" lon="1.12368">
        <ele>36.21</ele>
        <time>2018-11-02T14:15:40Z</time>
      </trkpt>
      <trkpt lat="49.93863" lon="1.12385">
        <ele>36.69</ele>
        <time>2018-11-02T14:15:50Z</time>
      </trkpt>
      <trkpt lat="49.93865" lon="1.12399">
        <ele>35.75</ele>
        <time>2018-11-02T14:16:05Z</time>
      </trkpt>
      <trkpt lat="49.93867" lon="1.1243">
        <ele>35.72</ele>
        <time>2018-11-02T14:16:23Z</time>
      </trkpt>
      <trkpt lat="49.93871" lon="1.12451">
        <ele>34.4</ele>
        <time>2018-11-02T14:16:36Z</time>
      </trkpt>
      <trkpt lat="49.93871" lon="1.12453">
        <ele>33.94</ele>
        <time>2018-11-02T14:16:37Z</time>
      </trkpt>
      <trkpt lat="49.93878" lon="1.1247">
        <ele>34.47</ele>
        <time>2018-11-02T14:16:50Z</time>
      </trkpt>
      <trkpt lat="49.93895" lon="1.12482">
        <ele>35.8</ele>
        <time>2018-11-02T14:17:07Z</time>
      </trkpt>
      <trkpt lat="49.93907" lon="1.12487">
        <ele>37.18</ele>
        <time>2018-11-02T14:17:20Z</time>
      </trkpt>
      <trkpt lat="49.93908" lon="1.12488">
        <ele>36.94</ele>
        <time>2018-11-02T14:17:26Z</time>
      </trkpt>
      <trkpt lat="49.93905" lon="1.12495">
        <ele>34.9</ele>
        <time>2018-11-02T14:17:42Z</time>
      </trkpt>
      <trkpt lat="49.93899" lon="1.12494">
        <ele>31.48</ele>
        <time>2018-11-02T14:18:00Z</time>
      </trkpt>
      <trkpt lat="49.93892" lon="1.12495">
        <ele>29.38</ele>
        <time>2018-11-02T14:18:14Z</time>
      </trkpt>
      <trkpt lat="49.93879" lon="1.1249">
        <ele>28.3</ele>
        <time>2018-11-02T14:18:25Z</time>
      </trkpt>
      <trkpt lat="49.93863" lon="1.12481">
        <ele>24.61</ele>
        <time>2018-11-02T14:18:45Z</time>
      </trkpt>
      <trkpt lat="49.93848" lon="1.1246">
        <ele>21.6</ele>
        <time>2018-11-02T14:19:04Z</time>
      </trkpt>
      <trkpt lat="49.93844" lon="1.12452">
        <ele>19.69</ele>
        <time>2018-11-02T14:19:14Z</time>
      </trkpt>
      <trkpt lat="49.93834" lon="1.12425">
        <ele>16.76</ele>
        <time>2018-11-02T14:19:32Z</time>
      </trkpt>
      <trkpt lat="49.93824" lon="1.12403">
        <ele>13.62</ele>
        <time>2018-11-02T14:19:51Z</time>
      </trkpt>
      <trkpt lat="49.9382" lon="1.12387">
        <ele>11.59</ele>
        <time>2018-11-02T14:20:05Z</time>
      </trkpt>
      <trkpt lat="49.93819" lon="1.12381">
        <ele>11.89</ele>
        <time>2018-11-02T14:20:08Z</time>
      </trkpt>
      <trkpt lat="49.93813" lon="1.12353">
        <ele>8.8</ele>
        <time>2018-11-02T14:20:29Z</time>
      </trkpt>
      <trkpt lat="49.93801" lon="1.1233">
        <ele>6.19</ele>
        <time>2018-11-02T14:20:49Z</time>
      </trkpt>
      <trkpt lat="49.93801" lon="1.12328">
        <ele>5.89</ele>
        <time>2018-11-02T14:20:51Z</time>
      </trkpt>
      <trkpt lat="49.93794" lon="1.12308">
        <ele>4.37</ele>
        <time>2018-11-02T14:21:03Z</time>
      </trkpt>
      <trkpt lat="49.93785" lon="1.12292">
        <ele>1.82</ele>
        <time>2018-11-02T14:21:22Z</time>
      </trkpt>
      <trkpt lat="49.93777" lon="1.12274">
        <ele>-1.26</ele>
        <time>2018-11-02T14:21:38Z</time>
      </trkpt>
      <trkpt lat="49.93766" lon="1.12254">
        <ele>-3.04</ele>
        <time>2018-11-02T14:21:58Z</time>
      </trkpt>
      <trkpt lat="49.93757" lon="1.1224">
        <ele>-3.77</ele>
        <time>2018-11-02T14:22:04Z</time>
      </trkpt>
      <trkpt lat="49.93751" lon="1.12237">
        <ele>-3.78</ele>
        <time>2018-11-02T14:22:25Z</time>
      </trkpt>
      <trkpt lat="49.93752" lon="1.12235">
        <ele>-3.74</ele>
        <time>2018-11-02T14:22:45Z</time>
      </trkpt>
      <trkpt lat="49.9375" lon="1.12233">
        <ele>-3.69</ele>
        <time>2018-11-02T14:22:48Z</time>
      </trkpt>
      <trkpt lat="49.93747" lon="1.12225">
        <ele>-4.21</ele>
        <time>2018-11-02T14:22:54Z</time>
      </trkpt>
      <trkpt lat="49.93746" lon="1.12209">
        <ele>-3.81</ele>
        <time>2018-11-02T14:23:10Z</time>
      </trkpt>
      <trkpt lat="49.93749" lon="1.12207">
        <ele>-3.66</ele>
        <time>2018-11-02T14:23:28Z</time>
      </trkpt>
      <trkpt lat="49.9375" lon="1.12202">
        <ele>-3.66</ele>
        <time>2018-11-02T14:23:31Z</time>
      </trkpt>
      <trkpt lat="49.9375" lon="1.12197">
        <ele>-3.89</ele>
        <time>2018-11-02T14:23:34Z</time>
      </trkpt>
      <trkpt lat="49.93751" lon="1.12189">
        <ele>-3.8</ele>
        <time>2018-11-02T14:23:38Z</time>
      </trkpt>
      <trkpt lat="49.93753" lon="1.12169">
        <ele>-4.05</ele>
        <time>2018-11-02T14:23:53Z</time>
      </trkpt>
      <trkpt lat="49.93756" lon="1.12148">
        <ele>-3.7</ele>
        <time>2018-11-02T14:24:08Z</time>
      </trkpt>
      <trkpt lat="49.93757" lon="1.12136">
        <ele>-4.53</ele>
        <time>2018-11-02T14:24:21Z</time>
      </trkpt>
      <trkpt lat="49.93757" lon="1.12114">
        <ele>-4.29</ele>
        <time>2018-11-02T14:24:35Z</time>
      </trkpt>
      <trkpt lat="49.93758" lon="1.12082">
        <ele>-4.4</ele>
        <time>2018-11-02T14:24:53Z</time>
      </trkpt>
      <trkpt lat="49.9376" lon="1.12051">
        <ele>-4.73</ele>
        <time>2018-11-02T14:25:11Z</time>
      </trkpt>
      <trkpt lat="49.93762" lon="1.12026">
        <ele>-4.77</ele>
        <time>2018-11-02T14:25:27Z</time>
      </trkpt>
      <trkpt lat="49.93761" lon="1.12023">
        <ele>-5.17</ele>
        <time>2018-11-02T14:25:29Z</time>
      </trkpt>
      <trkpt lat="49.93759" lon="1.12011">
        <ele>-5.04</ele>
        <time>2018-11-02T14:25:37Z</time>
      </trkpt>
      <trkpt lat="49.93744" lon="1.12011">
        <ele>-5.02</ele>
        <time>2018-11-02T14:25:49Z</time>
      </trkpt>
      <trkpt lat="49.93741" lon="1.12014">
        <ele>-4.23</ele>
        <time>2018-11-02T14:25:52Z</time>
      </trkpt>
      <trkpt lat="49.93736" lon="1.12015">
        <ele>-3.71</ele>
        <time>2018-11-02T14:25:56Z</time>
      </trkpt>
      <trkpt lat="49.93722" lon="1.12013">
        <ele>-2.76</ele>
        <time>2018-11-02T14:26:07Z</time>
      </trkpt>
      <trkpt lat="49.93719" lon="1.12012">
        <ele>-2.45</ele>
        <time>2018-11-02T14:26:21Z</time>
      </trkpt>
      <trkpt lat="49.93708" lon="1.12037">
        <ele>-1.06</ele>
        <time>2018-11-02T14:26:38Z</time>
      </trkpt>
      <trkpt lat="49.93714" lon="1.12029">
        <ele>-1.61</ele>
        <time>2018-11-02T14:26:49Z</time>
      </trkpt>
      <trkpt lat="49.93719" lon="1.1201">
        <ele>-2.28</ele>
        <time>2018-11-02T14:26:59Z</time>
      </trkpt>
      <trkpt lat="49.93706" lon="1.11994">
        <ele>-1.11</ele>
        <time>2018-11-02T14:27:15Z</time>
      </trkpt>
      <trkpt lat="49.93693" lon="1.11991">
        <ele>-0.6</ele>
        <time>2018-11-02T14:27:30Z</time>
      </trkpt>
      <trkpt lat="49.93682" lon="1.1199">
        <ele>-0.08</ele>
        <time>2018-11-02T14:27:41Z</time>
      </trkpt>
      <trkpt lat="49.93674" lon="1.11968">
        <ele>0.3</ele>
        <time>2018-11-02T14:27:57Z</time>
      </trkpt>
      <trkpt lat="49.93671" lon="1.11957">
        <ele>0.79</ele>
        <time>2018-11-02T14:28:03Z</time>
      </trkpt>
      <trkpt lat="49.9367" lon="1.11953">
        <ele>0.47</ele>
        <time>2018-11-02T14:28:05Z</time>
      </trkpt>
      <trkpt lat="49.93668" lon="1.11947">
        <ele>0.61</ele>
        <time>2018-11-02T14:28:09Z</time>
      </trkpt>
      <trkpt lat="49.93667" lon="1.11943">
        <ele>0.15</ele>
        <time>2018-11-02T14:28:11Z</time>
      </trkpt>
      <trkpt lat="49.93664" lon="1.11919">
        <ele>0.19</ele>
        <time>2018-11-02T14:28:25Z</time>
      </trkpt>
      <trkpt lat="49.93659" lon="1.11904">
        <ele>0.15</ele>
        <time>2018-11-02T14:28:34Z</time>
      </trkpt>
      <trkpt lat="49.93654" lon="1.11882">
        <ele>-0.35</ele>
        <time>2018-11-02T14:28:49Z</time>
      </trkpt>
      <trkpt lat="49.9365" lon="1.11868">
        <ele>-0.75</ele>
        <time>2018-11-02T14:28:56Z</time>
      </trkpt>
      <trkpt lat="49.9364" lon="1.11848">
        <ele>-1.79</ele>
        <time>2018-11-02T14:29:10Z</time>
      </trkpt>
      <trkpt lat="49.93636" lon="1.11839">
        <ele>-1.22</ele>
        <time>2018-11-02T14:29:15Z</time>
      </trkpt>
      <trkpt lat="49.93626" lon="1.11815">
        <ele>-1.57</ele>
        <time>2018-11-02T14:29:30Z</time>
      </trkpt>
      <trkpt lat="49.93624" lon="1.11812">
        <ele>-1.53</ele>
        <time>2018-11-02T14:29:36Z</time>
      </trkpt>
      <trkpt lat="49.9362" lon="1.11806">
        <ele>-1.5</ele>
        <time>2018-11-02T14:29:40Z</time>
      </trkpt>
      <trkpt lat="49.93598" lon="1.1179">
        <ele>-0.64</ele>
        <time>2018-11-02T14:30:00Z</time>
      </trkpt>
      <trkpt lat="49.93586" lon="1.11768">
        <ele>0.1</ele>
        <time>2018-11-02T14:30:18Z</time>
      </trkpt>
      <trkpt lat="49.93582" lon="1.11757">
        <ele>-0.22</ele>
        <time>2018-11-02T14:30:26Z</time>
      </trkpt>
      <trkpt lat="49.93581" lon="1.11736">
        <ele>0.35</ele>
        <time>2018-11-02T14:30:38Z</time>
      </trkpt>
      <trkpt lat="49.93582" lon="1.11718">
        <ele>1.45</ele>
        <time>2018-11-02T14:30:48Z</time>
      </trkpt>
      <trkpt lat="49.93582" lon="1.11706">
        <ele>1.66</ele>
        <time>2018-11-02T14:30:55Z</time>
      </trkpt>
      <trkpt lat="49.93581" lon="1.11683">
        <ele>1.86</ele>
        <time>2018-11-02T14:31:08Z</time>
      </trkpt>
      <trkpt lat="49.93577" lon="1.1167">
        <ele>2.82</ele>
        <time>2018-11-02T14:31:21Z</time>
      </trkpt>
      <trkpt lat="49.9356" lon="1.11667">
        <ele>5.5</ele>
        <time>2018-11-02T14:31:40Z</time>
      </trkpt>
      <trkpt lat="49.93539" lon="1.11669">
        <ele>8.37</ele>
        <time>2018-11-02T14:31:57Z</time>
      </trkpt>
      <trkpt lat="49.9352" lon="1.11664">
        <ele>10.92</ele>
        <time>2018-11-02T14:32:13Z</time>
      </trkpt>
      <trkpt lat="49.93506" lon="1.11679">
        <ele>13.67</ele>
        <time>2018-11-02T14:32:33Z</time>
      </trkpt>
      <trkpt lat="49.93489" lon="1.11687">
        <ele>16.8</ele>
        <time>2018-11-02T14:32:51Z</time>
      </trkpt>
      <trkpt lat="49.93478" lon="1.11681">
        <ele>17.87</ele>
        <time>2018-11-02T14:33:01Z</time>
      </trkpt>
      <trkpt lat="49.93468" lon="1.11663">
        <ele>19.22</ele>
        <time>2018-11-02T14:33:16Z</time>
      </trkpt>
      <trkpt lat="49.93467" lon="1.1166">
        <ele>19.23</ele>
        <time>2018-11-02T14:33:21Z</time>
      </trkpt>
      <trkpt lat="49.93464" lon="1.11653">
        <ele>19.82</ele>
        <time>2018-11-02T14:33:26Z</time>
      </trkpt>
      <trkpt lat="49.9346" lon="1.11648">
        <ele>19.52</ele>
        <time>2018-11-02T14:33:30Z</time>
      </trkpt>
      <trkpt lat="49.93448" lon="1.1163">
        <ele>20.46</ele>
        <time>2018-11-02T14:33:44Z</time>
      </trkpt>
      <trkpt lat="49.93434" lon="1.11615">
        <ele>21.37</ele>
        <time>2018-11-02T14:33:59Z</time>
      </trkpt>
      <trkpt lat="49.93423" lon="1.11603">
        <ele>22.47</ele>
        <time>2018-11-02T14:34:13Z</time>
      </trkpt>
      <trkpt lat="49.9341" lon="1.1159">
        <ele>24.65</ele>
        <time>2018-11-02T14:34:27Z</time>
      </trkpt>
      <trkpt lat="49.934" lon="1.11577">
        <ele>25.49</ele>
        <time>2018-11-02T14:34:37Z</time>
      </trkpt>
      <trkpt lat="49.93389" lon="1.11555">
        <ele>27.31</ele>
        <time>2018-11-02T14:34:51Z</time>
      </trkpt>
      <trkpt lat="49.93386" lon="1.1154">
        <ele>29.38</ele>
        <time>2018-11-02T14:35:06Z</time>
      </trkpt>
      <trkpt lat="49.93383" lon="1.11533">
        <ele>29.31</ele>
        <time>2018-11-02T14:35:20Z</time>
      </trkpt>
      <trkpt lat="49.93381" lon="1.11524">
        <ele>30.6</ele>
        <time>2018-11-02T14:35:26Z</time>
      </trkpt>
      <trkpt lat="49.93376" lon="1.11507">
        <ele>31.98</ele>
        <time>2018-11-02T14:35:39Z</time>
      </trkpt>
      <trkpt lat="49.93376" lon="1.11505">
        <ele>31.85</ele>
        <time>2018-11-02T14:35:44Z</time>
      </trkpt>
      <trkpt lat="49.93363" lon="1.11477">
        <ele>34</ele>
        <time>2018-11-02T14:36:05Z</time>
      </trkpt>
      <trkpt lat="49.93351" lon="1.1146">
        <ele>35.39</ele>
        <time>2018-11-02T14:36:20Z</time>
      </trkpt>
      <trkpt lat="49.93338" lon="1.11446">
        <ele>35.52</ele>
        <time>2018-11-02T14:36:33Z</time>
      </trkpt>
      <trkpt lat="49.93325" lon="1.11434">
        <ele>37.2</ele>
        <time>2018-11-02T14:36:45Z</time>
      </trkpt>
      <trkpt lat="49.9331" lon="1.11419">
        <ele>37.87</ele>
        <time>2018-11-02T14:37:00Z</time>
      </trkpt>
      <trkpt lat="49.93296" lon="1.11408">
        <ele>38.59</ele>
        <time>2018-11-02T14:37:14Z</time>
      </trkpt>
      <trkpt lat="49.93287" lon="1.11398">
        <ele>39.17</ele>
        <time>2018-11-02T14:37:24Z</time>
      </trkpt>
      <trkpt lat="49.93274" lon="1.11385">
        <ele>39.68</ele>
        <time>2018-11-02T14:37:37Z</time>
      </trkpt>
      <trkpt lat="49.93264" lon="1.11371">
        <ele>40.27</ele>
        <time>2018-11-02T14:37:49Z</time>
      </trkpt>
      <trkpt lat="49.93257" lon="1.11362">
        <ele>40.39</ele>
        <time>2018-11-02T14:37:57Z</time>
      </trkpt>
      <trkpt lat="49.93253" lon="1.11358">
        <ele>41.18</ele>
        <time>2018-11-02T14:38:01Z</time>
      </trkpt>
      <trkpt lat="49.93241" lon="1.1134">
        <ele>41.33</ele>
        <time>2018-11-02T14:38:15Z</time>
      </trkpt>
      <trkpt lat="49.93231" lon="1.11328">
        <ele>41.74</ele>
        <time>2018-11-02T14:38:27Z</time>
      </trkpt>
      <trkpt lat="49.93225" lon="1.11318">
        <ele>42.76</ele>
        <time>2018-11-02T14:38:36Z</time>
      </trkpt>
      <trkpt lat="49.93221" lon="1.1131">
        <ele>42.1</ele>
        <time>2018-11-02T14:38:41Z</time>
      </trkpt>
      <trkpt lat="49.93207" lon="1.11291">
        <ele>42.44</ele>
        <time>2018-11-02T14:38:58Z</time>
      </trkpt>
      <trkpt lat="49.93205" lon="1.11289">
        <ele>43.34</ele>
        <time>2018-11-02T14:39:00Z</time>
      </trkpt>
      <trkpt lat="49.93203" lon="1.11285">
        <ele>42.99</ele>
        <time>2018-11-02T14:39:04Z</time>
      </trkpt>
      <trkpt lat="49.93199" lon="1.1128">
        <ele>42.96</ele>
        <time>2018-11-02T14:39:09Z</time>
      </trkpt>
      <trkpt lat="49.93188" lon="1.11262">
        <ele>43.42</ele>
        <time>2018-11-02T14:39:23Z</time>
      </trkpt>
      <trkpt lat="49.93187" lon="1.11262">
        <ele>43.71</ele>
        <time>2018-11-02T14:39:24Z</time>
      </trkpt>
      <trkpt lat="49.93186" lon="1.11259">
        <ele>43.17</ele>
        <time>2018-11-02T14:39:26Z</time>
      </trkpt>
      <trkpt lat="49.9318" lon="1.11247">
        <ele>43.37</ele>
        <time>2018-11-02T14:39:35Z</time>
      </trkpt>
      <trkpt lat="49.93179" lon="1.11236">
        <ele>43.72</ele>
        <time>2018-11-02T14:39:42Z</time>
      </trkpt>
      <trkpt lat="49.93177" lon="1.1123">
        <ele>44.27</ele>
        <time>2018-11-02T14:39:46Z</time>
      </trkpt>
      <trkpt lat="49.93176" lon="1.11226">
        <ele>44.23</ele>
        <time>2018-11-02T14:39:49Z</time>
      </trkpt>
      <trkpt lat="49.93173" lon="1.11217">
        <ele>43.14</ele>
        <time>2018-11-02T14:39:55Z</time>
      </trkpt>
      <trkpt lat="49.93169" lon="1.11188">
        <ele>43.36</ele>
        <time>2018-11-02T14:40:11Z</time>
      </trkpt>
      <trkpt lat="49.93164" lon="1.11171">
        <ele>44.39</ele>
        <time>2018-11-02T14:40:23Z</time>
      </trkpt>
      <trkpt lat="49.9316" lon="1.11171">
        <ele>44.54</ele>
        <time>2018-11-02T14:40:27Z</time>
      </trkpt>
      <trkpt lat="49.93157" lon="1.1117">
        <ele>44.84</ele>
        <time>2018-11-02T14:40:30Z</time>
      </trkpt>
      <trkpt lat="49.93155" lon="1.11171">
        <ele>44.03</ele>
        <time>2018-11-02T14:40:32Z</time>
      </trkpt>
      <trkpt lat="49.93143" lon="1.11163">
        <ele>44.34</ele>
        <time>2018-11-02T14:40:44Z</time>
      </trkpt>
      <trkpt lat="49.93145" lon="1.11161">
        <ele>44.63</ele>
        <time>2018-11-02T14:40:47Z</time>
      </trkpt>
      <trkpt lat="49.93151" lon="1.11161">
        <ele>44.4</ele>
        <time>2018-11-02T14:40:54Z</time>
      </trkpt>
      <trkpt lat="49.93163" lon="1.11139">
        <ele>43.1</ele>
        <time>2018-11-02T14:41:10Z</time>
      </trkpt>
      <trkpt lat="49.93169" lon="1.11124">
        <ele>43.03</ele>
        <time>2018-11-02T14:41:20Z</time>
      </trkpt>
      <trkpt lat="49.9318" lon="1.11104">
        <ele>43.1</ele>
        <time>2018-11-02T14:41:34Z</time>
      </trkpt>
      <trkpt lat="49.93192" lon="1.11083">
        <ele>43.27</ele>
        <time>2018-11-02T14:41:49Z</time>
      </trkpt>
      <trkpt lat="49.932" lon="1.11068">
        <ele>43.18</ele>
        <time>2018-11-02T14:42:00Z</time>
      </trkpt>
      <trkpt lat="49.93204" lon="1.11057">
        <ele>42.6</ele>
        <time>2018-11-02T14:42:06Z</time>
      </trkpt>
      <trkpt lat="49.93215" lon="1.11035">
        <ele>42.5</ele>
        <time>2018-11-02T14:42:22Z</time>
      </trkpt>
      <trkpt lat="49.9322" lon="1.1102">
        <ele>42.83</ele>
        <time>2018-11-02T14:42:31Z</time>
      </trkpt>
      <trkpt lat="49.93225" lon="1.11008">
        <ele>42.37</ele>
        <time>2018-11-02T14:42:39Z</time>
      </trkpt>
      <trkpt lat="49.93229" lon="1.11003">
        <ele>42.39</ele>
        <time>2018-11-02T14:42:43Z</time>
      </trkpt>
      <trkpt lat="49.9324" lon="1.10982">
        <ele>41.98</ele>
        <time>2018-11-02T14:42:57Z</time>
      </trkpt>
      <trkpt lat="49.93252" lon="1.10957">
        <ele>41.56</ele>
        <time>2018-11-02T14:43:13Z</time>
      </trkpt>
      <trkpt lat="49.93258" lon="1.10947">
        <ele>41.98</ele>
        <time>2018-11-02T14:43:22Z</time>
      </trkpt>
      <trkpt lat="49.93265" lon="1.10929">
        <ele>41.3</ele>
        <time>2018-11-02T14:43:32Z</time>
      </trkpt>
      <trkpt lat="49.93271" lon="1.10915">
        <ele>41.44</ele>
        <time>2018-11-02T14:43:40Z</time>
      </trkpt>
      <trkpt lat="49.93275" lon="1.10905">
        <ele>41.32</ele>
        <time>2018-11-02T14:43:46Z</time>
      </trkpt>
      <trkpt lat="49.93287" lon="1.10875">
        <ele>41.61</ele>
        <time>2018-11-02T14:44:05Z</time>
      </trkpt>
      <trkpt lat="49.93298" lon="1.10851">
        <ele>40.9</ele>
        <time>2018-11-02T14:44:20Z</time>
      </trkpt>
      <trkpt lat="49.93298" lon="1.1085">
        <ele>40.97</ele>
        <time>2018-11-02T14:44:21Z</time>
      </trkpt>
      <trkpt lat="49.93307" lon="1.10827">
        <ele>41.12</ele>
        <time>2018-11-02T14:44:36Z</time>
      </trkpt>
      <trkpt lat="49.93316" lon="1.10802">
        <ele>40.4</ele>
        <time>2018-11-02T14:44:51Z</time>
      </trkpt>
      <trkpt lat="49.93322" lon="1.1079">
        <ele>40.14</ele>
        <time>2018-11-02T14:44:59Z</time>
      </trkpt>
      <trkpt lat="49.93323" lon="1.10788">
        <ele>39.83</ele>
        <time>2018-11-02T14:45:01Z</time>
      </trkpt>
      <trkpt lat="49.9333" lon="1.10764">
        <ele>39.53</ele>
        <time>2018-11-02T14:45:16Z</time>
      </trkpt>
      <trkpt lat="49.93329" lon="1.10757">
        <ele>39.98</ele>
        <time>2018-11-02T14:45:26Z</time>
      </trkpt>
      <trkpt lat="49.93331" lon="1.10758">
        <ele>39.98</ele>
        <time>2018-11-02T14:45:30Z</time>
      </trkpt>
      <trkpt lat="49.93333" lon="1.10756">
        <ele>39.66</ele>
        <time>2018-11-02T14:45:33Z</time>
      </trkpt>
      <trkpt lat="49.93336" lon="1.10751">
        <ele>39.69</ele>
        <time>2018-11-02T14:45:37Z</time>
      </trkpt>
      <trkpt lat="49.93343" lon="1.10739">
        <ele>39.1</ele>
        <time>2018-11-02T14:45:54Z</time>
      </trkpt>
      <trkpt lat="49.93341" lon="1.10728">
        <ele>39.71</ele>
        <time>2018-11-02T14:46:12Z</time>
      </trkpt>
      <trkpt lat="49.9334" lon="1.10728">
        <ele>39.3</ele>
        <time>2018-11-02T14:46:13Z</time>
      </trkpt>
      <trkpt lat="49.93328" lon="1.10723">
        <ele>39.94</ele>
        <time>2018-11-02T14:46:29Z</time>
      </trkpt>
      <trkpt lat="49.93327" lon="1.10718">
        <ele>40.28</ele>
        <time>2018-11-02T14:47:03Z</time>
      </trkpt>
      <trkpt lat="49.93323" lon="1.10717">
        <ele>40.03</ele>
        <time>2018-11-02T14:47:11Z</time>
      </trkpt>
      <trkpt lat="49.93316" lon="1.10715">
        <ele>40.25</ele>
        <time>2018-11-02T14:47:19Z</time>
      </trkpt>
      <trkpt lat="49.93308" lon="1.10713">
        <ele>39.97</ele>
        <time>2018-11-02T14:47:27Z</time>
      </trkpt>
      <trkpt lat="49.93304" lon="1.10711">
        <ele>40.05</ele>
        <time>2018-11-02T14:47:31Z</time>
      </trkpt>
      <trkpt lat="49.93291" lon="1.10703">
        <ele>40.27</ele>
        <time>2018-11-02T14:47:42Z</time>
      </trkpt>
      <trkpt lat="49.93281" lon="1.10694">
        <ele>41.3</ele>
        <time>2018-11-02T14:47:52Z</time>
      </trkpt>
      <trkpt lat="49.93277" lon="1.10679">
        <ele>40.47</ele>
        <time>2018-11-02T14:48:00Z</time>
      </trkpt>
      <trkpt lat="49.93277" lon="1.10667">
        <ele>40.67</ele>
        <time>2018-11-02T14:48:06Z</time>
      </trkpt>
      <trkpt lat="49.93278" lon="1.10659">
        <ele>40.79</ele>
        <time>2018-11-02T14:48:11Z</time>
      </trkpt>
      <trkpt lat="49.93283" lon="1.10649">
        <ele>40.59</ele>
        <time>2018-11-02T14:48:18Z</time>
      </trkpt>
      <trkpt lat="49.93286" lon="1.10638">
        <ele>40.66</ele>
        <time>2018-11-02T14:48:25Z</time>
      </trkpt>
      <trkpt lat="49.93289" lon="1.10628">
        <ele>40.34</ele>
        <time>2018-11-02T14:48:31Z</time>
      </trkpt>
      <trkpt lat="49.93291" lon="1.10624">
        <ele>40.24</ele>
        <time>2018-11-02T14:48:34Z</time>
      </trkpt>
      <trkpt lat="49.93293" lon="1.106">
        <ele>39.9</ele>
        <time>2018-11-02T14:48:46Z</time>
      </trkpt>
      <trkpt lat="49.93292" lon="1.10598">
        <ele>40.09</ele>
        <time>2018-11-02T14:48:48Z</time>
      </trkpt>
      <trkpt lat="49.93279" lon="1.10583">
        <ele>40.66</ele>
        <time>2018-11-02T14:49:04Z</time>
      </trkpt>
      <trkpt lat="49.93273" lon="1.1058">
        <ele>40.4</ele>
        <time>2018-11-02T14:49:10Z</time>
      </trkpt>
      <trkpt lat="49.9327" lon="1.10579">
        <ele>40.07</ele>
        <time>2018-11-02T14:49:12Z</time>
      </trkpt>
      <trkpt lat="49.93254" lon="1.10572">
        <ele>40.33</ele>
        <time>2018-11-02T14:49:26Z</time>
      </trkpt>
      <trkpt lat="49.93246" lon="1.1056">
        <ele>40.35</ele>
        <time>2018-11-02T14:49:36Z</time>
      </trkpt>
      <trkpt lat="49.93244" lon="1.10553">
        <ele>39.87</ele>
        <time>2018-11-02T14:49:41Z</time>
      </trkpt>
      <trkpt lat="49.93244" lon="1.10548">
        <ele>40.39</ele>
        <time>2018-11-02T14:49:44Z</time>
      </trkpt>
      <trkpt lat="49.93244" lon="1.1054">
        <ele>40.4</ele>
        <time>2018-11-02T14:49:47Z</time>
      </trkpt>
      <trkpt lat="49.9325" lon="1.10507">
        <ele>40.71</ele>
        <time>2018-11-02T14:50:02Z</time>
      </trkpt>
      <trkpt lat="49.93251" lon="1.10501">
        <ele>39.53</ele>
        <time>2018-11-02T14:50:06Z</time>
      </trkpt>
      <trkpt lat="49.93253" lon="1.10488">
        <ele>39.55</ele>
        <time>2018-11-02T14:50:12Z</time>
      </trkpt>
      <trkpt lat="49.93255" lon="1.10478">
        <ele>39.89</ele>
        <time>2018-11-02T14:50:17Z</time>
      </trkpt>
      <trkpt lat="49.93261" lon="1.10454">
        <ele>39.58</ele>
        <time>2018-11-02T14:50:30Z</time>
      </trkpt>
      <trkpt lat="49.93263" lon="1.10442">
        <ele>39.42</ele>
        <time>2018-11-02T14:50:37Z</time>
      </trkpt>
      <trkpt lat="49.93263" lon="1.10428">
        <ele>39.48</ele>
        <time>2018-11-02T14:50:45Z</time>
      </trkpt>
      <trkpt lat="49.93263" lon="1.10421">
        <ele>39.28</ele>
        <time>2018-11-02T14:50:48Z</time>
      </trkpt>
      <trkpt lat="49.93263" lon="1.10394">
        <ele>39.14</ele>
        <time>2018-11-02T14:51:03Z</time>
      </trkpt>
      <trkpt lat="49.93262" lon="1.10377">
        <ele>39.06</ele>
        <time>2018-11-02T14:51:11Z</time>
      </trkpt>
      <trkpt lat="49.93261" lon="1.10362">
        <ele>39.28</ele>
        <time>2018-11-02T14:51:19Z</time>
      </trkpt>
      <trkpt lat="49.9326" lon="1.10335">
        <ele>39.17</ele>
        <time>2018-11-02T14:51:34Z</time>
      </trkpt>
      <trkpt lat="49.93254" lon="1.10323">
        <ele>39.06</ele>
        <time>2018-11-02T14:51:44Z</time>
      </trkpt>
      <trkpt lat="49.93251" lon="1.10309">
        <ele>39.91</ele>
        <time>2018-11-02T14:51:52Z</time>
      </trkpt>
      <trkpt lat="49.93242" lon="1.10284">
        <ele>39.78</ele>
        <time>2018-11-02T14:52:07Z</time>
      </trkpt>
      <trkpt lat="49.9324" lon="1.10278">
        <ele>39.58</ele>
        <time>2018-11-02T14:52:11Z</time>
      </trkpt>
      <trkpt lat="49.93238" lon="1.10274">
        <ele>40</ele>
        <time>2018-11-02T14:52:14Z</time>
      </trkpt>
      <trkpt lat="49.93236" lon="1.10271">
        <ele>39.71</ele>
        <time>2018-11-02T14:52:16Z</time>
      </trkpt>
      <trkpt lat="49.93225" lon="1.10252">
        <ele>40.76</ele>
        <time>2018-11-02T14:52:30Z</time>
      </trkpt>
      <trkpt lat="49.93211" lon="1.10232">
        <ele>40.22</ele>
        <time>2018-11-02T14:52:45Z</time>
      </trkpt>
      <trkpt lat="49.9321" lon="1.10227">
        <ele>40.22</ele>
        <time>2018-11-02T14:52:49Z</time>
      </trkpt>
      <trkpt lat="49.93209" lon="1.10224">
        <ele>40.24</ele>
        <time>2018-11-02T14:52:52Z</time>
      </trkpt>
      <trkpt lat="49.93209" lon="1.10217">
        <ele>40.12</ele>
        <time>2018-11-02T14:52:56Z</time>
      </trkpt>
      <trkpt lat="49.93207" lon="1.10209">
        <ele>40.19</ele>
        <time>2018-11-02T14:53:01Z</time>
      </trkpt>
      <trkpt lat="49.93219" lon="1.10178">
        <ele>39.29</ele>
        <time>2018-11-02T14:53:20Z</time>
      </trkpt>
      <trkpt lat="49.93234" lon="1.10185">
        <ele>38.89</ele>
        <time>2018-11-02T14:53:35Z</time>
      </trkpt>
      <trkpt lat="49.93235" lon="1.10187">
        <ele>38.75</ele>
        <time>2018-11-02T14:53:37Z</time>
      </trkpt>
      <trkpt lat="49.93238" lon="1.10193">
        <ele>39.18</ele>
        <time>2018-11-02T14:53:41Z</time>
      </trkpt>
      <trkpt lat="49.93243" lon="1.102">
        <ele>38.99</ele>
        <time>2018-11-02T14:53:48Z</time>
      </trkpt>
      <trkpt lat="49.93263" lon="1.10197">
        <ele>38.33</ele>
        <time>2018-11-02T14:54:04Z</time>
      </trkpt>
      <trkpt lat="49.93266" lon="1.10193">
        <ele>38.17</ele>
        <time>2018-11-02T14:54:08Z</time>
      </trkpt>
      <trkpt lat="49.93271" lon="1.1018">
        <ele>37.89</ele>
        <time>2018-11-02T14:54:17Z</time>
      </trkpt>
      <trkpt lat="49.93273" lon="1.10163">
        <ele>37.59</ele>
        <time>2018-11-02T14:54:26Z</time>
      </trkpt>
      <trkpt lat="49.93282" lon="1.10144">
        <ele>38.17</ele>
        <time>2018-11-02T14:54:40Z</time>
      </trkpt>
      <trkpt lat="49.93296" lon="1.10127">
        <ele>37.42</ele>
        <time>2018-11-02T14:54:56Z</time>
      </trkpt>
      <trkpt lat="49.93306" lon="1.10116">
        <ele>37.45</ele>
        <time>2018-11-02T14:55:10Z</time>
      </trkpt>
      <trkpt lat="49.93313" lon="1.10108">
        <ele>36.84</ele>
        <time>2018-11-02T14:55:16Z</time>
      </trkpt>
      <trkpt lat="49.93318" lon="1.10103">
        <ele>36.65</ele>
        <time>2018-11-02T14:55:20Z</time>
      </trkpt>
      <trkpt lat="49.93329" lon="1.1008">
        <ele>36.24</ele>
        <time>2018-11-02T14:55:36Z</time>
      </trkpt>
      <trkpt lat="49.93328" lon="1.10079">
        <ele>36.31</ele>
        <time>2018-11-02T14:55:37Z</time>
      </trkpt>
      <trkpt lat="49.93319" lon="1.10065">
        <ele>36.09</ele>
        <time>2018-11-02T14:55:51Z</time>
      </trkpt>
      <trkpt lat="49.93317" lon="1.10061">
        <ele>36.62</ele>
        <time>2018-11-02T14:55:54Z</time>
      </trkpt>
      <trkpt lat="49.93315" lon="1.10059">
        <ele>36.12</ele>
        <time>2018-11-02T14:55:56Z</time>
      </trkpt>
      <trkpt lat="49.93312" lon="1.10044">
        <ele>36.11</ele>
        <time>2018-11-02T14:56:03Z</time>
      </trkpt>
      <trkpt lat="49.93318" lon="1.10026">
        <ele>35.8</ele>
        <time>2018-11-02T14:56:16Z</time>
      </trkpt>
      <trkpt lat="49.93321" lon="1.10022">
        <ele>35.84</ele>
        <time>2018-11-02T14:56:19Z</time>
      </trkpt>
      <trkpt lat="49.93325" lon="1.10016">
        <ele>35.77</ele>
        <time>2018-11-02T14:56:23Z</time>
      </trkpt>
      <trkpt lat="49.93337" lon="1.09994">
        <ele>35.27</ele>
        <time>2018-11-02T14:56:40Z</time>
      </trkpt>
      <trkpt lat="49.93348" lon="1.09976">
        <ele>34.84</ele>
        <time>2018-11-02T14:56:54Z</time>
      </trkpt>
      <trkpt lat="49.93356" lon="1.09965">
        <ele>34.85</ele>
        <time>2018-11-02T14:57:06Z</time>
      </trkpt>
      <trkpt lat="49.93357" lon="1.09964">
        <ele>34.83</ele>
        <time>2018-11-02T14:57:07Z</time>
      </trkpt>
      <trkpt lat="49.93362" lon="1.09941">
        <ele>35.05</ele>
        <time>2018-11-02T14:57:21Z</time>
      </trkpt>
      <trkpt lat="49.93362" lon="1.09938">
        <ele>34.59</ele>
        <time>2018-11-02T14:57:23Z</time>
      </trkpt>
      <trkpt lat="49.9336" lon="1.0993">
        <ele>34.68</ele>
        <time>2018-11-02T14:57:28Z</time>
      </trkpt>
      <trkpt lat="49.93351" lon="1.09909">
        <ele>34.9</ele>
        <time>2018-11-02T14:57:47Z</time>
      </trkpt>
      <trkpt lat="49.93349" lon="1.09907">
        <ele>34.81</ele>
        <time>2018-11-02T14:57:53Z</time>
      </trkpt>
      <trkpt lat="49.93347" lon="1.09901">
        <ele>35.11</ele>
        <time>2018-11-02T14:57:58Z</time>
      </trkpt>
      <trkpt lat="49.9334" lon="1.09877">
        <ele>34.81</ele>
        <time>2018-11-02T14:58:14Z</time>
      </trkpt>
      <trkpt lat="49.93339" lon="1.09875">
        <ele>34.35</ele>
        <time>2018-11-02T14:58:15Z</time>
      </trkpt>
      <trkpt lat="49.93333" lon="1.09868">
        <ele>34.96</ele>
        <time>2018-11-02T14:58:22Z</time>
      </trkpt>
      <trkpt lat="49.93323" lon="1.09843">
        <ele>35.39</ele>
        <time>2018-11-02T14:58:39Z</time>
      </trkpt>
      <trkpt lat="49.93312" lon="1.09818">
        <ele>35.1</ele>
        <time>2018-11-02T14:58:55Z</time>
      </trkpt>
      <trkpt lat="49.93301" lon="1.09801">
        <ele>34.99</ele>
        <time>2018-11-02T14:59:08Z</time>
      </trkpt>
      <trkpt lat="49.93298" lon="1.09782">
        <ele>34.73</ele>
        <time>2018-11-02T14:59:21Z</time>
      </trkpt>
      <trkpt lat="49.93287" lon="1.09757">
        <ele>34.28</ele>
        <time>2018-11-02T14:59:36Z</time>
      </trkpt>
      <trkpt lat="49.93287" lon="1.09754">
        <ele>34.47</ele>
        <time>2018-11-02T14:59:38Z</time>
      </trkpt>
      <trkpt lat="49.93275" lon="1.09734">
        <ele>34.7</ele>
        <time>2018-11-02T14:59:53Z</time>
      </trkpt>
      <trkpt lat="49.93268" lon="1.09712">
        <ele>34.06</ele>
        <time>2018-11-02T15:00:07Z</time>
      </trkpt>
      <trkpt lat="49.9326" lon="1.09694">
        <ele>33.84</ele>
        <time>2018-11-02T15:00:17Z</time>
      </trkpt>
      <trkpt lat="49.93253" lon="1.09671">
        <ele>34.22</ele>
        <time>2018-11-02T15:00:31Z</time>
      </trkpt>
      <trkpt lat="49.93247" lon="1.09649">
        <ele>33.76</ele>
        <time>2018-11-02T15:00:49Z</time>
      </trkpt>
      <trkpt lat="49.93238" lon="1.09629">
        <ele>33.86</ele>
        <time>2018-11-02T15:01:04Z</time>
      </trkpt>
      <trkpt lat="49.93236" lon="1.09621">
        <ele>33.79</ele>
        <time>2018-11-02T15:01:09Z</time>
      </trkpt>
      <trkpt lat="49.93234" lon="1.09613">
        <ele>33.22</ele>
        <time>2018-11-02T15:01:13Z</time>
      </trkpt>
      <trkpt lat="49.93229" lon="1.09593">
        <ele>33.76</ele>
        <time>2018-11-02T15:01:30Z</time>
      </trkpt>
      <trkpt lat="49.93221" lon="1.09564">
        <ele>33.61</ele>
        <time>2018-11-02T15:01:47Z</time>
      </trkpt>
      <trkpt lat="49.93213" lon="1.09533">
        <ele>33</ele>
        <time>2018-11-02T15:02:02Z</time>
      </trkpt>
      <trkpt lat="49.93207" lon="1.09511">
        <ele>32.28</ele>
        <time>2018-11-02T15:02:17Z</time>
      </trkpt>
      <trkpt lat="49.932" lon="1.09486">
        <ele>31.76</ele>
        <time>2018-11-02T15:02:30Z</time>
      </trkpt>
      <trkpt lat="49.93194" lon="1.0946">
        <ele>31.44</ele>
        <time>2018-11-02T15:02:46Z</time>
      </trkpt>
      <trkpt lat="49.93185" lon="1.09434">
        <ele>31.2</ele>
        <time>2018-11-02T15:03:02Z</time>
      </trkpt>
      <trkpt lat="49.93181" lon="1.09424">
        <ele>30.44</ele>
        <time>2018-11-02T15:03:10Z</time>
      </trkpt>
      <trkpt lat="49.93171" lon="1.09397">
        <ele>30.24</ele>
        <time>2018-11-02T15:03:27Z</time>
      </trkpt>
      <trkpt lat="49.93171" lon="1.09393">
        <ele>29.99</ele>
        <time>2018-11-02T15:03:31Z</time>
      </trkpt>
      <trkpt lat="49.93164" lon="1.09369">
        <ele>29.06</ele>
        <time>2018-11-02T15:03:47Z</time>
      </trkpt>
      <trkpt lat="49.93158" lon="1.09346">
        <ele>29.05</ele>
        <time>2018-11-02T15:04:02Z</time>
      </trkpt>
      <trkpt lat="49.93148" lon="1.09318">
        <ele>28.51</ele>
        <time>2018-11-02T15:04:19Z</time>
      </trkpt>
      <trkpt lat="49.93139" lon="1.09296">
        <ele>27.78</ele>
        <time>2018-11-02T15:04:34Z</time>
      </trkpt>
      <trkpt lat="49.93125" lon="1.09267">
        <ele>26.39</ele>
        <time>2018-11-02T15:04:55Z</time>
      </trkpt>
      <trkpt lat="49.93121" lon="1.09261">
        <ele>25.5</ele>
        <time>2018-11-02T15:04:59Z</time>
      </trkpt>
      <trkpt lat="49.93112" lon="1.09245">
        <ele>24.78</ele>
        <time>2018-11-02T15:05:11Z</time>
      </trkpt>
      <trkpt lat="49.93108" lon="1.09236">
        <ele>24.87</ele>
        <time>2018-11-02T15:05:16Z</time>
      </trkpt>
      <trkpt lat="49.93106" lon="1.09219">
        <ele>24.58</ele>
        <time>2018-11-02T15:05:25Z</time>
      </trkpt>
      <trkpt lat="49.93104" lon="1.09212">
        <ele>23.63</ele>
        <time>2018-11-02T15:05:31Z</time>
      </trkpt>
      <trkpt lat="49.931" lon="1.09202">
        <ele>24.09</ele>
        <time>2018-11-02T15:05:37Z</time>
      </trkpt>
      <trkpt lat="49.93097" lon="1.09192">
        <ele>23.72</ele>
        <time>2018-11-02T15:05:43Z</time>
      </trkpt>
      <trkpt lat="49.93092" lon="1.09183">
        <ele>24.04</ele>
        <time>2018-11-02T15:05:53Z</time>
      </trkpt>
      <trkpt lat="49.93088" lon="1.09176">
        <ele>24.3</ele>
        <time>2018-11-02T15:05:58Z</time>
      </trkpt>
      <trkpt lat="49.93085" lon="1.09174">
        <ele>24.29</ele>
        <time>2018-11-02T15:06:00Z</time>
      </trkpt>
      <trkpt lat="49.93082" lon="1.0917">
        <ele>24.56</ele>
        <time>2018-11-02T15:06:03Z</time>
      </trkpt>
      <trkpt lat="49.93069" lon="1.09153">
        <ele>24.56</ele>
        <time>2018-11-02T15:06:19Z</time>
      </trkpt>
      <trkpt lat="49.93063" lon="1.09142">
        <ele>24.17</ele>
        <time>2018-11-02T15:06:29Z</time>
      </trkpt>
      <trkpt lat="49.93051" lon="1.09124">
        <ele>23.46</ele>
        <time>2018-11-02T15:06:44Z</time>
      </trkpt>
      <trkpt lat="49.9305" lon="1.09123">
        <ele>23.62</ele>
        <time>2018-11-02T15:06:45Z</time>
      </trkpt>
      <trkpt lat="49.93045" lon="1.09114">
        <ele>23.08</ele>
        <time>2018-11-02T15:06:51Z</time>
      </trkpt>
      <trkpt lat="49.93033" lon="1.09094">
        <ele>22.65</ele>
        <time>2018-11-02T15:07:06Z</time>
      </trkpt>
      <trkpt lat="49.9303" lon="1.09088">
        <ele>22.33</ele>
        <time>2018-11-02T15:07:10Z</time>
      </trkpt>
      <trkpt lat="49.93018" lon="1.09066">
        <ele>21.38</ele>
        <time>2018-11-02T15:07:29Z</time>
      </trkpt>
      <trkpt lat="49.93017" lon="1.09065">
        <ele>21.47</ele>
        <time>2018-11-02T15:07:30Z</time>
      </trkpt>
      <trkpt lat="49.93013" lon="1.09057">
        <ele>21.23</ele>
        <time>2018-11-02T15:07:35Z</time>
      </trkpt>
      <trkpt lat="49.93005" lon="1.09038">
        <ele>20.33</ele>
        <time>2018-11-02T15:07:50Z</time>
      </trkpt>
      <trkpt lat="49.92995" lon="1.09019">
        <ele>20.62</ele>
        <time>2018-11-02T15:08:03Z</time>
      </trkpt>
      <trkpt lat="49.92986" lon="1.09002">
        <ele>19.85</ele>
        <time>2018-11-02T15:08:16Z</time>
      </trkpt>
      <trkpt lat="49.92974" lon="1.08978">
        <ele>19.51</ele>
        <time>2018-11-02T15:08:31Z</time>
      </trkpt>
      <trkpt lat="49.9297" lon="1.08973">
        <ele>19.23</ele>
        <time>2018-11-02T15:08:36Z</time>
      </trkpt>
      <trkpt lat="49.92969" lon="1.08968">
        <ele>19.31</ele>
        <time>2018-11-02T15:08:38Z</time>
      </trkpt>
      <trkpt lat="49.92966" lon="1.08957">
        <ele>19.18</ele>
        <time>2018-11-02T15:08:46Z</time>
      </trkpt>
      <trkpt lat="49.92961" lon="1.08946">
        <ele>19.36</ele>
        <time>2018-11-02T15:08:53Z</time>
      </trkpt>
      <trkpt lat="49.92949" lon="1.08935">
        <ele>18.6</ele>
        <time>2018-11-02T15:09:01Z</time>
      </trkpt>
      <trkpt lat="49.92949" lon="1.08939">
        <ele>18.89</ele>
        <time>2018-11-02T15:09:05Z</time>
      </trkpt>
      <trkpt lat="49.92946" lon="1.08958">
        <ele>18.93</ele>
        <time>2018-11-02T15:09:23Z</time>
      </trkpt>
      <trkpt lat="49.92935" lon="1.08974">
        <ele>17.68</ele>
        <time>2018-11-02T15:09:38Z</time>
      </trkpt>
      <trkpt lat="49.92925" lon="1.08985">
        <ele>16.8</ele>
        <time>2018-11-02T15:09:49Z</time>
      </trkpt>
      <trkpt lat="49.92918" lon="1.08982">
        <ele>16.81</ele>
        <time>2018-11-02T15:09:55Z</time>
      </trkpt>
      <trkpt lat="49.92914" lon="1.08982">
        <ele>15.57</ele>
        <time>2018-11-02T15:09:59Z</time>
      </trkpt>
      <trkpt lat="49.92913" lon="1.08982">
        <ele>15.77</ele>
        <time>2018-11-02T15:10:00Z</time>
      </trkpt>
      <trkpt lat="49.92901" lon="1.0897">
        <ele>14.59</ele>
        <time>2018-11-02T15:10:16Z</time>
      </trkpt>
      <trkpt lat="49.92892" lon="1.08959">
        <ele>13.36</ele>
        <time>2018-11-02T15:10:27Z</time>
      </trkpt>
      <trkpt lat="49.92879" lon="1.08938">
        <ele>12.37</ele>
        <time>2018-11-02T15:10:42Z</time>
      </trkpt>
      <trkpt lat="49.92876" lon="1.0893">
        <ele>11.61</ele>
        <time>2018-11-02T15:10:49Z</time>
      </trkpt>
      <trkpt lat="49.92874" lon="1.08926">
        <ele>11.39</ele>
        <time>2018-11-02T15:10:51Z</time>
      </trkpt>
      <trkpt lat="49.92868" lon="1.08898">
        <ele>10.48</ele>
        <time>2018-11-02T15:11:07Z</time>
      </trkpt>
      <trkpt lat="49.92867" lon="1.0889">
        <ele>10.04</ele>
        <time>2018-11-02T15:11:12Z</time>
      </trkpt>
      <trkpt lat="49.92862" lon="1.08861">
        <ele>10.18</ele>
        <time>2018-11-02T15:11:27Z</time>
      </trkpt>
      <trkpt lat="49.92858" lon="1.08835">
        <ele>8.91</ele>
        <time>2018-11-02T15:11:42Z</time>
      </trkpt>
      <trkpt lat="49.92855" lon="1.08815">
        <ele>8.9</ele>
        <time>2018-11-02T15:11:54Z</time>
      </trkpt>
      <trkpt lat="49.9285" lon="1.08786">
        <ele>7.71</ele>
        <time>2018-11-02T15:12:12Z</time>
      </trkpt>
      <trkpt lat="49.92839" lon="1.08778">
        <ele>5.91</ele>
        <time>2018-11-02T15:12:29Z</time>
      </trkpt>
      <trkpt lat="49.92833" lon="1.08767">
        <ele>3.93</ele>
        <time>2018-11-02T15:12:38Z</time>
      </trkpt>
      <trkpt lat="49.92823" lon="1.08759">
        <ele>2.81</ele>
        <time>2018-11-02T15:13:01Z</time>
      </trkpt>
      <trkpt lat="49.92815" lon="1.08773">
        <ele>-0.22</ele>
        <time>2018-11-02T15:13:22Z</time>
      </trkpt>
      <trkpt lat="49.92815" lon="1.0879">
        <ele>-2.55</ele>
        <time>2018-11-02T15:13:34Z</time>
      </trkpt>
      <trkpt lat="49.92815" lon="1.08801">
        <ele>-3.61</ele>
        <time>2018-11-02T15:13:42Z</time>
      </trkpt>
      <trkpt lat="49.9281" lon="1.08789">
        <ele>-5.33</ele>
        <time>2018-11-02T15:13:58Z</time>
      </trkpt>
      <trkpt lat="49.9281" lon="1.08788">
        <ele>-5.32</ele>
        <time>2018-11-02T15:13:59Z</time>
      </trkpt>
      <trkpt lat="49.92805" lon="1.08777">
        <ele>-7.32</ele>
        <time>2018-11-02T15:14:13Z</time>
      </trkpt>
      <trkpt lat="49.92799" lon="1.08773">
        <ele>-7.57</ele>
        <time>2018-11-02T15:14:20Z</time>
      </trkpt>
      <trkpt lat="49.9279" lon="1.08766">
        <ele>-8.57</ele>
        <time>2018-11-02T15:14:30Z</time>
      </trkpt>
      <trkpt lat="49.9278" lon="1.08757">
        <ele>-9.47</ele>
        <time>2018-11-02T15:14:47Z</time>
      </trkpt>
      <trkpt lat="49.92777" lon="1.08764">
        <ele>-9.48</ele>
        <time>2018-11-02T15:14:55Z</time>
      </trkpt>
      <trkpt lat="49.92759" lon="1.08762">
        <ele>-9.04</ele>
        <time>2018-11-02T15:15:07Z</time>
      </trkpt>
      <trkpt lat="49.92753" lon="1.08748">
        <ele>-10.07</ele>
        <time>2018-11-02T15:15:21Z</time>
      </trkpt>
      <trkpt lat="49.92751" lon="1.08718">
        <ele>-11.56</ele>
        <time>2018-11-02T15:15:43Z</time>
      </trkpt>
      <trkpt lat="49.92753" lon="1.08688">
        <ele>-11.53</ele>
        <time>2018-11-02T15:16:00Z</time>
      </trkpt>
      <trkpt lat="49.92736" lon="1.08666">
        <ele>-11.6</ele>
        <time>2018-11-02T15:16:14Z</time>
      </trkpt>
      <trkpt lat="49.92731" lon="1.08655">
        <ele>-11.51</ele>
        <time>2018-11-02T15:16:24Z</time>
      </trkpt>
      <trkpt lat="49.92727" lon="1.08653">
        <ele>-11.19</ele>
        <time>2018-11-02T15:16:38Z</time>
      </trkpt>
      <trkpt lat="49.92728" lon="1.08651">
        <ele>-11.47</ele>
        <time>2018-11-02T15:16:41Z</time>
      </trkpt>
      <trkpt lat="49.92729" lon="1.08648">
        <ele>-11.57</ele>
        <time>2018-11-02T15:16:46Z</time>
      </trkpt>
      <trkpt lat="49.92728" lon="1.08655">
        <ele>-11.37</ele>
        <time>2018-11-02T15:16:50Z</time>
      </trkpt>
      <trkpt lat="49.92728" lon="1.0866">
        <ele>-11.54</ele>
        <time>2018-11-02T15:16:53Z</time>
      </trkpt>
      <trkpt lat="49.92726" lon="1.08683">
        <ele>-11.4</ele>
        <time>2018-11-02T15:17:07Z</time>
      </trkpt>
      <trkpt lat="49.92726" lon="1.08684">
        <ele>-11.4</ele>
        <time>2018-11-02T15:17:08Z</time>
      </trkpt>
      <trkpt lat="49.92723" lon="1.08688">
        <ele>-12.05</ele>
        <time>2018-11-02T15:17:13Z</time>
      </trkpt>
      <trkpt lat="49.92722" lon="1.0869">
        <ele>-11.45</ele>
        <time>2018-11-02T15:17:15Z</time>
      </trkpt>
      <trkpt lat="49.92716" lon="1.08694">
        <ele>-11.95</ele>
        <time>2018-11-02T15:17:27Z</time>
      </trkpt>
      <trkpt lat="49.92718" lon="1.08694">
        <ele>-12.67</ele>
        <time>2018-11-02T15:17:30Z</time>
      </trkpt>
      <trkpt lat="49.92706" lon="1.0872">
        <ele>-12.64</ele>
        <time>2018-11-02T15:17:42Z</time>
      </trkpt>
      <trkpt lat="49.92688" lon="1.08732">
        <ele>-12.62</ele>
        <time>2018-11-02T15:17:57Z</time>
      </trkpt>
      <trkpt lat="49.92676" lon="1.08725">
        <ele>-12.66</ele>
        <time>2018-11-02T15:18:13Z</time>
      </trkpt>
      <trkpt lat="49.92672" lon="1.08729">
        <ele>-12.76</ele>
        <time>2018-11-02T15:18:16Z</time>
      </trkpt>
      <trkpt lat="49.92653" lon="1.08746">
        <ele>-12.6</ele>
        <time>2018-11-02T15:18:31Z</time>
      </trkpt>
      <trkpt lat="49.92651" lon="1.0877">
        <ele>-12.96</ele>
        <time>2018-11-02T15:18:50Z</time>
      </trkpt>
      <trkpt lat="49.92639" lon="1.08793">
        <ele>-12.68</ele>
        <time>2018-11-02T15:19:08Z</time>
      </trkpt>
      <trkpt lat="49.92635" lon="1.08799">
        <ele>-13.34</ele>
        <time>2018-11-02T15:19:12Z</time>
      </trkpt>
      <trkpt lat="49.92633" lon="1.08801">
        <ele>-12.97</ele>
        <time>2018-11-02T15:19:14Z</time>
      </trkpt>
      <trkpt lat="49.92625" lon="1.08824">
        <ele>-12.75</ele>
        <time>2018-11-02T15:19:25Z</time>
      </trkpt>
      <trkpt lat="49.92612" lon="1.08834">
        <ele>-12.57</ele>
        <time>2018-11-02T15:19:35Z</time>
      </trkpt>
      <trkpt lat="49.92611" lon="1.08843">
        <ele>-13.47</ele>
        <time>2018-11-02T15:19:40Z</time>
      </trkpt>
      <trkpt lat="49.92597" lon="1.08855">
        <ele>-12.9</ele>
        <time>2018-11-02T15:19:51Z</time>
      </trkpt>
      <trkpt lat="49.92595" lon="1.08857">
        <ele>-12.77</ele>
        <time>2018-11-02T15:19:53Z</time>
      </trkpt>
      <trkpt lat="49.92587" lon="1.08862">
        <ele>-12.08</ele>
        <time>2018-11-02T15:20:02Z</time>
      </trkpt>
      <trkpt lat="49.92581" lon="1.08865">
        <ele>-11.99</ele>
        <time>2018-11-02T15:20:07Z</time>
      </trkpt>
      <trkpt lat="49.92577" lon="1.0887">
        <ele>-12.55</ele>
        <time>2018-11-02T15:20:13Z</time>
      </trkpt>
      <trkpt lat="49.92563" lon="1.0889">
        <ele>-11.66</ele>
        <time>2018-11-02T15:20:30Z</time>
      </trkpt>
      <trkpt lat="49.92545" lon="1.08912">
        <ele>-12.46</ele>
        <time>2018-11-02T15:20:50Z</time>
      </trkpt>
      <trkpt lat="49.92532" lon="1.08927">
        <ele>-12.51</ele>
        <time>2018-11-02T15:21:02Z</time>
      </trkpt>
      <trkpt lat="49.92527" lon="1.08943">
        <ele>-12.35</ele>
        <time>2018-11-02T15:21:17Z</time>
      </trkpt>
      <trkpt lat="49.92519" lon="1.08964">
        <ele>-12.39</ele>
        <time>2018-11-02T15:21:37Z</time>
      </trkpt>
      <trkpt lat="49.92509" lon="1.08987">
        <ele>-12.61</ele>
        <time>2018-11-02T15:21:55Z</time>
      </trkpt>
      <trkpt lat="49.92498" lon="1.09009">
        <ele>-12.1</ele>
        <time>2018-11-02T15:22:12Z</time>
      </trkpt>
      <trkpt lat="49.92487" lon="1.09027">
        <ele>-11.49</ele>
        <time>2018-11-02T15:22:28Z</time>
      </trkpt>
      <trkpt lat="49.9248" lon="1.09038">
        <ele>-11.28</ele>
        <time>2018-11-02T15:22:35Z</time>
      </trkpt>
      <trkpt lat="49.92468" lon="1.09052">
        <ele>-11.58</ele>
        <time>2018-11-02T15:22:44Z</time>
      </trkpt>
      <trkpt lat="49.9246" lon="1.09055">
        <ele>-11.55</ele>
        <time>2018-11-02T15:23:00Z</time>
      </trkpt>
      <trkpt lat="49.92456" lon="1.09048">
        <ele>-11.24</ele>
        <time>2018-11-02T15:23:08Z</time>
      </trkpt>
      <trkpt lat="49.92448" lon="1.09028">
        <ele>-10.55</ele>
        <time>2018-11-02T15:23:25Z</time>
      </trkpt>
      <trkpt lat="49.92442" lon="1.09004">
        <ele>-10.1</ele>
        <time>2018-11-02T15:23:43Z</time>
      </trkpt>
      <trkpt lat="49.92432" lon="1.08987">
        <ele>-9.76</ele>
        <time>2018-11-02T15:23:57Z</time>
      </trkpt>
      <trkpt lat="49.92429" lon="1.08972">
        <ele>-9.81</ele>
        <time>2018-11-02T15:24:13Z</time>
      </trkpt>
      <trkpt lat="49.92429" lon="1.08969">
        <ele>-10.14</ele>
        <time>2018-11-02T15:24:15Z</time>
      </trkpt>
      <trkpt lat="49.92424" lon="1.08957">
        <ele>-10.39</ele>
        <time>2018-11-02T15:24:20Z</time>
      </trkpt>
      <trkpt lat="49.92415" lon="1.0893">
        <ele>-10.2</ele>
        <time>2018-11-02T15:24:37Z</time>
      </trkpt>
      <trkpt lat="49.92398" lon="1.08911">
        <ele>-10.59</ele>
        <time>2018-11-02T15:24:49Z</time>
      </trkpt>
      <trkpt lat="49.92389" lon="1.089">
        <ele>-11.24</ele>
        <time>2018-11-02T15:24:57Z</time>
      </trkpt>
      <trkpt lat="49.92377" lon="1.0888">
        <ele>-10.58</ele>
        <time>2018-11-02T15:25:11Z</time>
      </trkpt>
      <trkpt lat="49.92363" lon="1.0886">
        <ele>-10.52</ele>
        <time>2018-11-02T15:25:24Z</time>
      </trkpt>
      <trkpt lat="49.92361" lon="1.0884">
        <ele>-10.94</ele>
        <time>2018-11-02T15:25:33Z</time>
      </trkpt>
      <trkpt lat="49.92364" lon="1.08829">
        <ele>-10.67</ele>
        <time>2018-11-02T15:25:37Z</time>
      </trkpt>
      <trkpt lat="49.92362" lon="1.08809">
        <ele>-11.08</ele>
        <time>2018-11-02T15:25:50Z</time>
      </trkpt>
      <trkpt lat="49.9236" lon="1.08794">
        <ele>-10.65</ele>
        <time>2018-11-02T15:26:05Z</time>
      </trkpt>
      <trkpt lat="49.92359" lon="1.08792">
        <ele>-10.25</ele>
        <time>2018-11-02T15:26:08Z</time>
      </trkpt>
      <trkpt lat="49.92358" lon="1.08786">
        <ele>-10.09</ele>
        <time>2018-11-02T15:26:11Z</time>
      </trkpt>
      <trkpt lat="49.92353" lon="1.08769">
        <ele>-10.2</ele>
        <time>2018-11-02T15:26:25Z</time>
      </trkpt>
      <trkpt lat="49.92348" lon="1.0875">
        <ele>-10.28</ele>
        <time>2018-11-02T15:26:41Z</time>
      </trkpt>
      <trkpt lat="49.92344" lon="1.0874">
        <ele>-10.36</ele>
        <time>2018-11-02T15:26:48Z</time>
      </trkpt>
      <trkpt lat="49.92337" lon="1.08713">
        <ele>-9.42</ele>
        <time>2018-11-02T15:27:05Z</time>
      </trkpt>
      <trkpt lat="49.92334" lon="1.08701">
        <ele>-8.96</ele>
        <time>2018-11-02T15:27:20Z</time>
      </trkpt>
      <trkpt lat="49.92329" lon="1.0869">
        <ele>-9.44</ele>
        <time>2018-11-02T15:27:45Z</time>
      </trkpt>
      <trkpt lat="49.92324" lon="1.08675">
        <ele>-9.68</ele>
        <time>2018-11-02T15:28:03Z</time>
      </trkpt>
      <trkpt lat="49.9232" lon="1.08664">
        <ele>-9.52</ele>
        <time>2018-11-02T15:28:13Z</time>
      </trkpt>
      <trkpt lat="49.92313" lon="1.08653">
        <ele>-10.46</ele>
        <time>2018-11-02T15:28:32Z</time>
      </trkpt>
      <trkpt lat="49.92311" lon="1.0865">
        <ele>-10.65</ele>
        <time>2018-11-02T15:28:34Z</time>
      </trkpt>
      <trkpt lat="49.92301" lon="1.08624">
        <ele>-10.38</ele>
        <time>2018-11-02T15:28:50Z</time>
      </trkpt>
      <trkpt lat="49.92298" lon="1.08622">
        <ele>-10.4</ele>
        <time>2018-11-02T15:28:54Z</time>
      </trkpt>
      <trkpt lat="49.92271" lon="1.08618">
        <ele>-10.83</ele>
        <time>2018-11-02T15:29:12Z</time>
      </trkpt>
      <trkpt lat="49.92257" lon="1.08618">
        <ele>-10.3</ele>
        <time>2018-11-02T15:29:27Z</time>
      </trkpt>
      <trkpt lat="49.92252" lon="1.08614">
        <ele>-11.11</ele>
        <time>2018-11-02T15:29:46Z</time>
      </trkpt>
      <trkpt lat="49.92252" lon="1.08613">
        <ele>-10.4</ele>
        <time>2018-11-02T15:29:47Z</time>
      </trkpt>
      <trkpt lat="49.92242" lon="1.08593">
        <ele>-10.67</ele>
        <time>2018-11-02T15:30:03Z</time>
      </trkpt>
      <trkpt lat="49.92237" lon="1.08579">
        <ele>-10.31</ele>
        <time>2018-11-02T15:30:14Z</time>
      </trkpt>
      <trkpt lat="49.92235" lon="1.08555">
        <ele>-10.73</ele>
        <time>2018-11-02T15:30:30Z</time>
      </trkpt>
      <trkpt lat="49.92228" lon="1.08535">
        <ele>-11.72</ele>
        <time>2018-11-02T15:30:47Z</time>
      </trkpt>
      <trkpt lat="49.92225" lon="1.08522">
        <ele>-11.44</ele>
        <time>2018-11-02T15:31:01Z</time>
      </trkpt>
      <trkpt lat="49.9222" lon="1.08513">
        <ele>-11.59</ele>
        <time>2018-11-02T15:31:21Z</time>
      </trkpt>
      <trkpt lat="49.92205" lon="1.08508">
        <ele>-12.58</ele>
        <time>2018-11-02T15:31:36Z</time>
      </trkpt>
      <trkpt lat="49.92201" lon="1.08512">
        <ele>-11.7</ele>
        <time>2018-11-02T15:31:45Z</time>
      </trkpt>
      <trkpt lat="49.92195" lon="1.08512">
        <ele>-11.46</ele>
        <time>2018-11-02T15:31:56Z</time>
      </trkpt>
      <trkpt lat="49.92201" lon="1.08521">
        <ele>-11.66</ele>
        <time>2018-11-02T15:32:13Z</time>
      </trkpt>
      <trkpt lat="49.92213" lon="1.08536">
        <ele>-10.96</ele>
        <time>2018-11-02T15:32:28Z</time>
      </trkpt>
      <trkpt lat="49.92224" lon="1.08538">
        <ele>-10.57</ele>
        <time>2018-11-02T15:32:43Z</time>
      </trkpt>
      <trkpt lat="49.92227" lon="1.08537">
        <ele>-10.51</ele>
        <time>2018-11-02T15:32:52Z</time>
      </trkpt>
      <trkpt lat="49.92222" lon="1.08537">
        <ele>-11.2</ele>
        <time>2018-11-02T15:33:06Z</time>
      </trkpt>
      <trkpt lat="49.92208" lon="1.08526">
        <ele>-11.42</ele>
        <time>2018-11-02T15:33:19Z</time>
      </trkpt>
      <trkpt lat="49.92206" lon="1.08523">
        <ele>-11.87</ele>
        <time>2018-11-02T15:33:21Z</time>
      </trkpt>
      <trkpt lat="49.92195" lon="1.0851">
        <ele>-12.12</ele>
        <time>2018-11-02T15:33:33Z</time>
      </trkpt>
      <trkpt lat="49.9219" lon="1.08506">
        <ele>-11.31</ele>
        <time>2018-11-02T15:33:37Z</time>
      </trkpt>
      <trkpt lat="49.92179" lon="1.08485">
        <ele>-11.71</ele>
        <time>2018-11-02T15:33:53Z</time>
      </trkpt>
      <trkpt lat="49.92163" lon="1.08461">
        <ele>-12.27</ele>
        <time>2018-11-02T15:34:11Z</time>
      </trkpt>
      <trkpt lat="49.92153" lon="1.08431">
        <ele>-12.18</ele>
        <time>2018-11-02T15:34:27Z</time>
      </trkpt>
      <trkpt lat="49.92162" lon="1.08407">
        <ele>-11.42</ele>
        <time>2018-11-02T15:34:44Z</time>
      </trkpt>
      <trkpt lat="49.92179" lon="1.08378">
        <ele>-11.3</ele>
        <time>2018-11-02T15:35:06Z</time>
      </trkpt>
      <trkpt lat="49.92182" lon="1.08371">
        <ele>-11.41</ele>
        <time>2018-11-02T15:35:14Z</time>
      </trkpt>
      <trkpt lat="49.92184" lon="1.08363">
        <ele>-11.5</ele>
        <time>2018-11-02T15:35:20Z</time>
      </trkpt>
      <trkpt lat="49.92187" lon="1.0836">
        <ele>-11.57</ele>
        <time>2018-11-02T15:35:23Z</time>
      </trkpt>
      <trkpt lat="49.92192" lon="1.08345">
        <ele>-11.36</ele>
        <time>2018-11-02T15:35:37Z</time>
      </trkpt>
      <trkpt lat="49.92197" lon="1.08336">
        <ele>-11.03</ele>
        <time>2018-11-02T15:35:46Z</time>
      </trkpt>
      <trkpt lat="49.92199" lon="1.08333">
        <ele>-11.33</ele>
        <time>2018-11-02T15:35:48Z</time>
      </trkpt>
      <trkpt lat="49.92202" lon="1.0833">
        <ele>-11.38</ele>
        <time>2018-11-02T15:35:51Z</time>
      </trkpt>
      <trkpt lat="49.92221" lon="1.0832">
        <ele>-11.09</ele>
        <time>2018-11-02T15:36:04Z</time>
      </trkpt>
      <trkpt lat="49.92239" lon="1.08305">
        <ele>-10.82</ele>
        <time>2018-11-02T15:36:19Z</time>
      </trkpt>
      <trkpt lat="49.92243" lon="1.08287">
        <ele>-10.94</ele>
        <time>2018-11-02T15:36:28Z</time>
      </trkpt>
      <trkpt lat="49.92246" lon="1.08275">
        <ele>-10.66</ele>
        <time>2018-11-02T15:36:38Z</time>
      </trkpt>
      <trkpt lat="49.92245" lon="1.08272">
        <ele>-10.81</ele>
        <time>2018-11-02T15:36:44Z</time>
      </trkpt>
      <trkpt lat="49.92253" lon="1.08265">
        <ele>-11.09</ele>
        <time>2018-11-02T15:36:56Z</time>
      </trkpt>
      <trkpt lat="49.9226" lon="1.08257">
        <ele>-11.04</ele>
        <time>2018-11-02T15:37:00Z</time>
      </trkpt>
      <trkpt lat="49.92258" lon="1.08243">
        <ele>-10.86</ele>
        <time>2018-11-02T15:37:11Z</time>
      </trkpt>
      <trkpt lat="49.92248" lon="1.08224">
        <ele>-10.8</ele>
        <time>2018-11-02T15:37:24Z</time>
      </trkpt>
      <trkpt lat="49.92248" lon="1.08211">
        <ele>-10.58</ele>
        <time>2018-11-02T15:37:32Z</time>
      </trkpt>
      <trkpt lat="49.92258" lon="1.08196">
        <ele>-10.64</ele>
        <time>2018-11-02T15:37:46Z</time>
      </trkpt>
      <trkpt lat="49.92266" lon="1.08196">
        <ele>-10.45</ele>
        <time>2018-11-02T15:37:55Z</time>
      </trkpt>
      <trkpt lat="49.92277" lon="1.08194">
        <ele>-10.38</ele>
        <time>2018-11-02T15:38:04Z</time>
      </trkpt>
      <trkpt lat="49.92283" lon="1.08194">
        <ele>-10.32</ele>
        <time>2018-11-02T15:38:11Z</time>
      </trkpt>
      <trkpt lat="49.92286" lon="1.08192">
        <ele>-11.1</ele>
        <time>2018-11-02T15:38:14Z</time>
      </trkpt>
      <trkpt lat="49.92298" lon="1.08204">
        <ele>-10.49</ele>
        <time>2018-11-02T15:38:28Z</time>
      </trkpt>
      <trkpt lat="49.92303" lon="1.08203">
        <ele>-10.28</ele>
        <time>2018-11-02T15:38:41Z</time>
      </trkpt>
      <trkpt lat="49.92323" lon="1.08188">
        <ele>-10.12</ele>
        <time>2018-11-02T15:38:57Z</time>
      </trkpt>
      <trkpt lat="49.92329" lon="1.08184">
        <ele>-10.12</ele>
        <time>2018-11-02T15:39:02Z</time>
      </trkpt>
      <trkpt lat="49.92338" lon="1.08178">
        <ele>-10.69</ele>
        <time>2018-11-02T15:39:10Z</time>
      </trkpt>
      <trkpt lat="49.92342" lon="1.08177">
        <ele>-10.19</ele>
        <time>2018-11-02T15:39:14Z</time>
      </trkpt>
      <trkpt lat="49.92347" lon="1.08174">
        <ele>-10.62</ele>
        <time>2018-11-02T15:39:19Z</time>
      </trkpt>
      <trkpt lat="49.92365" lon="1.08162">
        <ele>-10.72</ele>
        <time>2018-11-02T15:39:35Z</time>
      </trkpt>
      <trkpt lat="49.92376" lon="1.08157">
        <ele>-10.76</ele>
        <time>2018-11-02T15:39:46Z</time>
      </trkpt>
      <trkpt lat="49.92387" lon="1.08155">
        <ele>-10.62</ele>
        <time>2018-11-02T15:40:01Z</time>
      </trkpt>
      <trkpt lat="49.92395" lon="1.08148">
        <ele>-10.07</ele>
        <time>2018-11-02T15:40:21Z</time>
      </trkpt>
      <trkpt lat="49.92397" lon="1.08145">
        <ele>-10.42</ele>
        <time>2018-11-02T15:40:23Z</time>
      </trkpt>
      <trkpt lat="49.92399" lon="1.08144">
        <ele>-10.42</ele>
        <time>2018-11-02T15:40:25Z</time>
      </trkpt>
      <trkpt lat="49.92411" lon="1.08136">
        <ele>-10.05</ele>
        <time>2018-11-02T15:40:36Z</time>
      </trkpt>
      <trkpt lat="49.92415" lon="1.08134">
        <ele>-10.32</ele>
        <time>2018-11-02T15:40:40Z</time>
      </trkpt>
      <trkpt lat="49.9242" lon="1.08131">
        <ele>-10.35</ele>
        <time>2018-11-02T15:40:45Z</time>
      </trkpt>
      <trkpt lat="49.92438" lon="1.08122">
        <ele>-9.99</ele>
        <time>2018-11-02T15:41:00Z</time>
      </trkpt>
      <trkpt lat="49.92443" lon="1.08118">
        <ele>-10.24</ele>
        <time>2018-11-02T15:41:06Z</time>
      </trkpt>
      <trkpt lat="49.92462" lon="1.08105">
        <ele>-10.44</ele>
        <time>2018-11-02T15:41:24Z</time>
      </trkpt>
      <trkpt lat="49.92476" lon="1.08091">
        <ele>-10.2</ele>
        <time>2018-11-02T15:41:40Z</time>
      </trkpt>
      <trkpt lat="49.92478" lon="1.0809">
        <ele>-10.28</ele>
        <time>2018-11-02T15:41:44Z</time>
      </trkpt>
      <trkpt lat="49.92493" lon="1.08085">
        <ele>-11.06</ele>
        <time>2018-11-02T15:41:58Z</time>
      </trkpt>
      <trkpt lat="49.92501" lon="1.08079">
        <ele>-10.65</ele>
        <time>2018-11-02T15:42:14Z</time>
      </trkpt>
      <trkpt lat="49.92511" lon="1.08069">
        <ele>-10.82</ele>
        <time>2018-11-02T15:42:28Z</time>
      </trkpt>
      <trkpt lat="49.92519" lon="1.08063">
        <ele>-10.48</ele>
        <time>2018-11-02T15:42:37Z</time>
      </trkpt>
      <trkpt lat="49.92531" lon="1.08054">
        <ele>-10.36</ele>
        <time>2018-11-02T15:42:51Z</time>
      </trkpt>
      <trkpt lat="49.92545" lon="1.08046">
        <ele>-10.5</ele>
        <time>2018-11-02T15:43:03Z</time>
      </trkpt>
      <trkpt lat="49.9255" lon="1.08044">
        <ele>-10.29</ele>
        <time>2018-11-02T15:43:07Z</time>
      </trkpt>
      <trkpt lat="49.92553" lon="1.08034">
        <ele>-11.15</ele>
        <time>2018-11-02T15:43:21Z</time>
      </trkpt>
      <trkpt lat="49.92546" lon="1.08015">
        <ele>-11.36</ele>
        <time>2018-11-02T15:43:37Z</time>
      </trkpt>
      <trkpt lat="49.92544" lon="1.08011">
        <ele>-11.47</ele>
        <time>2018-11-02T15:43:39Z</time>
      </trkpt>
      <trkpt lat="49.92533" lon="1.07975">
        <ele>-10.09</ele>
        <time>2018-11-02T15:43:59Z</time>
      </trkpt>
      <trkpt lat="49.92527" lon="1.07962">
        <ele>-10.43</ele>
        <time>2018-11-02T15:44:10Z</time>
      </trkpt>
      <trkpt lat="49.92527" lon="1.07953">
        <ele>-10.87</ele>
        <time>2018-11-02T15:44:16Z</time>
      </trkpt>
      <trkpt lat="49.92536" lon="1.07949">
        <ele>-10.85</ele>
        <time>2018-11-02T15:44:27Z</time>
      </trkpt>
      <trkpt lat="49.9254" lon="1.07946">
        <ele>-10.77</ele>
        <time>2018-11-02T15:44:32Z</time>
      </trkpt>
      <trkpt lat="49.92551" lon="1.07931">
        <ele>-10.46</ele>
        <time>2018-11-02T15:44:46Z</time>
      </trkpt>
      <trkpt lat="49.92544" lon="1.07919">
        <ele>-10.74</ele>
        <time>2018-11-02T15:44:59Z</time>
      </trkpt>
      <trkpt lat="49.92535" lon="1.07893">
        <ele>-10.78</ele>
        <time>2018-11-02T15:45:18Z</time>
      </trkpt>
      <trkpt lat="49.9254" lon="1.07903">
        <ele>-11.04</ele>
        <time>2018-11-02T15:45:36Z</time>
      </trkpt>
      <trkpt lat="49.92549" lon="1.07902">
        <ele>-11.37</ele>
        <time>2018-11-02T15:45:46Z</time>
      </trkpt>
      <trkpt lat="49.92583" lon="1.07892">
        <ele>-10.79</ele>
        <time>2018-11-02T15:46:06Z</time>
      </trkpt>
      <trkpt lat="49.92584" lon="1.07889">
        <ele>-10.78</ele>
        <time>2018-11-02T15:46:07Z</time>
      </trkpt>
      <trkpt lat="49.92584" lon="1.07869">
        <ele>-11.19</ele>
        <time>2018-11-02T15:46:19Z</time>
      </trkpt>
      <trkpt lat="49.92584" lon="1.07861">
        <ele>-11.08</ele>
        <time>2018-11-02T15:46:23Z</time>
      </trkpt>
      <trkpt lat="49.9258" lon="1.07845">
        <ele>-11.23</ele>
        <time>2018-11-02T15:46:33Z</time>
      </trkpt>
      <trkpt lat="49.92584" lon="1.07843">
        <ele>-10.77</ele>
        <time>2018-11-02T15:46:47Z</time>
      </trkpt>
      <trkpt lat="49.92586" lon="1.0783">
        <ele>-11.12</ele>
        <time>2018-11-02T15:46:55Z</time>
      </trkpt>
      <trkpt lat="49.92583" lon="1.07796">
        <ele>-10.65</ele>
        <time>2018-11-02T15:47:12Z</time>
      </trkpt>
      <trkpt lat="49.92576" lon="1.07768">
        <ele>-10.42</ele>
        <time>2018-11-02T15:47:30Z</time>
      </trkpt>
      <trkpt lat="49.92563" lon="1.07775">
        <ele>-10.93</ele>
        <time>2018-11-02T15:47:46Z</time>
      </trkpt>
      <trkpt lat="49.92556" lon="1.07774">
        <ele>-10.31</ele>
        <time>2018-11-02T15:48:09Z</time>
      </trkpt>
      <trkpt lat="49.92555" lon="1.07744">
        <ele>-10.6</ele>
        <time>2018-11-02T15:48:22Z</time>
      </trkpt>
      <trkpt lat="49.92548" lon="1.0774">
        <ele>-10.41</ele>
        <time>2018-11-02T15:48:31Z</time>
      </trkpt>
      <trkpt lat="49.92542" lon="1.07738">
        <ele>-10.4</ele>
        <time>2018-11-02T15:48:50Z</time>
      </trkpt>
      <trkpt lat="49.92546" lon="1.07748">
        <ele>-9.97</ele>
        <time>2018-11-02T15:49:16Z</time>
      </trkpt>
      <trkpt lat="49.92549" lon="1.07746">
        <ele>-10.19</ele>
        <time>2018-11-02T15:49:26Z</time>
      </trkpt>
      <trkpt lat="49.92545" lon="1.07728">
        <ele>-9.58</ele>
        <time>2018-11-02T15:49:50Z</time>
      </trkpt>
      <trkpt lat="49.9254" lon="1.07711">
        <ele>-9.51</ele>
        <time>2018-11-02T15:50:06Z</time>
      </trkpt>
      <trkpt lat="49.9253" lon="1.07689">
        <ele>-10.16</ele>
        <time>2018-11-02T15:50:23Z</time>
      </trkpt>
      <trkpt lat="49.92522" lon="1.07674">
        <ele>-10.33</ele>
        <time>2018-11-02T15:50:42Z</time>
      </trkpt>
      <trkpt lat="49.92518" lon="1.07653">
        <ele>-10.28</ele>
        <time>2018-11-02T15:50:58Z</time>
      </trkpt>
      <trkpt lat="49.92518" lon="1.07647">
        <ele>-10.65</ele>
        <time>2018-11-02T15:51:08Z</time>
      </trkpt>
      <trkpt lat="49.92512" lon="1.07626">
        <ele>-11</ele>
        <time>2018-11-02T15:51:24Z</time>
      </trkpt>
      <trkpt lat="49.92506" lon="1.07607">
        <ele>-10.44</ele>
        <time>2018-11-02T15:51:42Z</time>
      </trkpt>
      <trkpt lat="49.92506" lon="1.07597">
        <ele>-10.81</ele>
        <time>2018-11-02T15:51:57Z</time>
      </trkpt>
      <trkpt lat="49.92498" lon="1.07575">
        <ele>-10.73</ele>
        <time>2018-11-02T15:52:16Z</time>
      </trkpt>
      <trkpt lat="49.92496" lon="1.07567">
        <ele>-10.89</ele>
        <time>2018-11-02T15:52:23Z</time>
      </trkpt>
      <trkpt lat="49.92491" lon="1.07546">
        <ele>-10.95</ele>
        <time>2018-11-02T15:52:36Z</time>
      </trkpt>
      <trkpt lat="49.92493" lon="1.07529">
        <ele>-10.98</ele>
        <time>2018-11-02T15:52:57Z</time>
      </trkpt>
      <trkpt lat="49.92482" lon="1.07512">
        <ele>-11.4</ele>
        <time>2018-11-02T15:53:14Z</time>
      </trkpt>
      <trkpt lat="49.92474" lon="1.07494">
        <ele>-11.34</ele>
        <time>2018-11-02T15:53:29Z</time>
      </trkpt>
      <trkpt lat="49.92471" lon="1.07471">
        <ele>-11.13</ele>
        <time>2018-11-02T15:53:45Z</time>
      </trkpt>
      <trkpt lat="49.92473" lon="1.07462">
        <ele>-10.86</ele>
        <time>2018-11-02T15:53:56Z</time>
      </trkpt>
      <trkpt lat="49.92483" lon="1.07453">
        <ele>-11.04</ele>
        <time>2018-11-02T15:54:21Z</time>
      </trkpt>
      <trkpt lat="49.92489" lon="1.0745">
        <ele>-11.09</ele>
        <time>2018-11-02T15:54:26Z</time>
      </trkpt>
      <trkpt lat="49.92508" lon="1.07443">
        <ele>-11.22</ele>
        <time>2018-11-02T15:54:41Z</time>
      </trkpt>
      <trkpt lat="49.92515" lon="1.07428">
        <ele>-11.24</ele>
        <time>2018-11-02T15:54:52Z</time>
      </trkpt>
      <trkpt lat="49.92522" lon="1.07396">
        <ele>-10.69</ele>
        <time>2018-11-02T15:55:11Z</time>
      </trkpt>
      <trkpt lat="49.92517" lon="1.07384">
        <ele>-10.9</ele>
        <time>2018-11-02T15:55:26Z</time>
      </trkpt>
      <trkpt lat="49.92515" lon="1.07378">
        <ele>-10.55</ele>
        <time>2018-11-02T15:55:40Z</time>
      </trkpt>
      <trkpt lat="49.92512" lon="1.07374">
        <ele>-10.81</ele>
        <time>2018-11-02T15:55:43Z</time>
      </trkpt>
      <trkpt lat="49.92505" lon="1.07357">
        <ele>-10.43</ele>
        <time>2018-11-02T15:55:55Z</time>
      </trkpt>
      <trkpt lat="49.92502" lon="1.07349">
        <ele>-10.19</ele>
        <time>2018-11-02T15:56:01Z</time>
      </trkpt>
      <trkpt lat="49.925" lon="1.07346">
        <ele>-10.27</ele>
        <time>2018-11-02T15:56:04Z</time>
      </trkpt>
      <trkpt lat="49.92499" lon="1.07342">
        <ele>-10.47</ele>
        <time>2018-11-02T15:56:06Z</time>
      </trkpt>
      <trkpt lat="49.92502" lon="1.07326">
        <ele>-10.46</ele>
        <time>2018-11-02T15:56:15Z</time>
      </trkpt>
      <trkpt lat="49.92494" lon="1.07303">
        <ele>-10.22</ele>
        <time>2018-11-02T15:56:30Z</time>
      </trkpt>
      <trkpt lat="49.9248" lon="1.07281">
        <ele>-10.41</ele>
        <time>2018-11-02T15:56:43Z</time>
      </trkpt>
      <trkpt lat="49.92468" lon="1.07288">
        <ele>-10.45</ele>
        <time>2018-11-02T15:56:59Z</time>
      </trkpt>
      <trkpt lat="49.9246" lon="1.07291">
        <ele>-10.47</ele>
        <time>2018-11-02T15:57:09Z</time>
      </trkpt>
      <trkpt lat="49.92458" lon="1.07292">
        <ele>-9.84</ele>
        <time>2018-11-02T15:57:11Z</time>
      </trkpt>
      <trkpt lat="49.9245" lon="1.07296">
        <ele>-10.2</ele>
        <time>2018-11-02T15:57:26Z</time>
      </trkpt>
      <trkpt lat="49.92449" lon="1.07295">
        <ele>-10.83</ele>
        <time>2018-11-02T15:57:29Z</time>
      </trkpt>
      <trkpt lat="49.92434" lon="1.07292">
        <ele>-10.54</ele>
        <time>2018-11-02T15:57:44Z</time>
      </trkpt>
      <trkpt lat="49.92428" lon="1.07296">
        <ele>-10.49</ele>
        <time>2018-11-02T15:57:51Z</time>
      </trkpt>
      <trkpt lat="49.92426" lon="1.07298">
        <ele>-10.37</ele>
        <time>2018-11-02T15:57:53Z</time>
      </trkpt>
      <trkpt lat="49.92415" lon="1.07298">
        <ele>-10.04</ele>
        <time>2018-11-02T15:58:14Z</time>
      </trkpt>
      <trkpt lat="49.92411" lon="1.07294">
        <ele>-10</ele>
        <time>2018-11-02T15:58:19Z</time>
      </trkpt>
      <trkpt lat="49.92406" lon="1.07283">
        <ele>-9.97</ele>
        <time>2018-11-02T15:58:26Z</time>
      </trkpt>
      <trkpt lat="49.92396" lon="1.07269">
        <ele>-9.49</ele>
        <time>2018-11-02T15:58:41Z</time>
      </trkpt>
      <trkpt lat="49.92388" lon="1.0726">
        <ele>-9.17</ele>
        <time>2018-11-02T15:58:50Z</time>
      </trkpt>
      <trkpt lat="49.92372" lon="1.07248">
        <ele>-8.14</ele>
        <time>2018-11-02T15:59:00Z</time>
      </trkpt>
      <trkpt lat="49.92356" lon="1.07231">
        <ele>-7.8</ele>
        <time>2018-11-02T15:59:14Z</time>
      </trkpt>
      <trkpt lat="49.92353" lon="1.07226">
        <ele>-7.8</ele>
        <time>2018-11-02T15:59:19Z</time>
      </trkpt>
      <trkpt lat="49.92344" lon="1.07216">
        <ele>-6.42</ele>
        <time>2018-11-02T15:59:33Z</time>
      </trkpt>
      <trkpt lat="49.92337" lon="1.07207">
        <ele>-5.2</ele>
        <time>2018-11-02T15:59:44Z</time>
      </trkpt>
      <trkpt lat="49.92322" lon="1.07194">
        <ele>-3.5</ele>
        <time>2018-11-02T15:59:58Z</time>
      </trkpt>
      <trkpt lat="49.92314" lon="1.07183">
        <ele>-2.24</ele>
        <time>2018-11-02T16:00:09Z</time>
      </trkpt>
      <trkpt lat="49.92307" lon="1.07172">
        <ele>-1.73</ele>
        <time>2018-11-02T16:00:22Z</time>
      </trkpt>
      <trkpt lat="49.92307" lon="1.07161">
        <ele>-0.94</ele>
        <time>2018-11-02T16:00:26Z</time>
      </trkpt>
      <trkpt lat="49.92311" lon="1.0715">
        <ele>-0.72</ele>
        <time>2018-11-02T16:00:34Z</time>
      </trkpt>
      <trkpt lat="49.92313" lon="1.07148">
        <ele>0.82</ele>
        <time>2018-11-02T16:00:37Z</time>
      </trkpt>
      <trkpt lat="49.92319" lon="1.07134">
        <ele>2.5</ele>
        <time>2018-11-02T16:00:48Z</time>
      </trkpt>
      <trkpt lat="49.9232" lon="1.07132">
        <ele>4.1</ele>
        <time>2018-11-02T16:00:50Z</time>
      </trkpt>
      <trkpt lat="49.92329" lon="1.07111">
        <ele>6.51</ele>
        <time>2018-11-02T16:01:10Z</time>
      </trkpt>
      <trkpt lat="49.92329" lon="1.0711">
        <ele>6.43</ele>
        <time>2018-11-02T16:01:11Z</time>
      </trkpt>
      <trkpt lat="49.92337" lon="1.07093">
        <ele>8.94</ele>
        <time>2018-11-02T16:01:28Z</time>
      </trkpt>
      <trkpt lat="49.92352" lon="1.07073">
        <ele>12.51</ele>
        <time>2018-11-02T16:01:49Z</time>
      </trkpt>
      <trkpt lat="49.92356" lon="1.07052">
        <ele>15.85</ele>
        <time>2018-11-02T16:02:06Z</time>
      </trkpt>
      <trkpt lat="49.92361" lon="1.07043">
        <ele>19.36</ele>
        <time>2018-11-02T16:02:19Z</time>
      </trkpt>
      <trkpt lat="49.92366" lon="1.0703">
        <ele>22.27</ele>
        <time>2018-11-02T16:02:37Z</time>
      </trkpt>
      <trkpt lat="49.92359" lon="1.07018">
        <ele>24.3</ele>
        <time>2018-11-02T16:02:49Z</time>
      </trkpt>
      <trkpt lat="49.92354" lon="1.07009">
        <ele>23.56</ele>
        <time>2018-11-02T16:03:00Z</time>
      </trkpt>
      <trkpt lat="49.92351" lon="1.07005">
        <ele>25.38</ele>
        <time>2018-11-02T16:03:04Z</time>
      </trkpt>
      <trkpt lat="49.92349" lon="1.07003">
        <ele>25.8</ele>
        <time>2018-11-02T16:03:06Z</time>
      </trkpt>
      <trkpt lat="49.92343" lon="1.06984">
        <ele>26.99</ele>
        <time>2018-11-02T16:03:20Z</time>
      </trkpt>
      <trkpt lat="49.92345" lon="1.06969">
        <ele>28.73</ele>
        <time>2018-11-02T16:03:33Z</time>
      </trkpt>
      <trkpt lat="49.92351" lon="1.06962">
        <ele>31.61</ele>
        <time>2018-11-02T16:03:43Z</time>
      </trkpt>
      <trkpt lat="49.92361" lon="1.06951">
        <ele>33.5</ele>
        <time>2018-11-02T16:03:58Z</time>
      </trkpt>
      <trkpt lat="49.92363" lon="1.06949">
        <ele>33.91</ele>
        <time>2018-11-02T16:04:00Z</time>
      </trkpt>
      <trkpt lat="49.92367" lon="1.06946">
        <ele>34.23</ele>
        <time>2018-11-02T16:04:04Z</time>
      </trkpt>
      <trkpt lat="49.92373" lon="1.0694">
        <ele>34.29</ele>
        <time>2018-11-02T16:04:09Z</time>
      </trkpt>
      <trkpt lat="49.92388" lon="1.06922">
        <ele>34.59</ele>
        <time>2018-11-02T16:04:26Z</time>
      </trkpt>
      <trkpt lat="49.924" lon="1.0691">
        <ele>34.29</ele>
        <time>2018-11-02T16:04:40Z</time>
      </trkpt>
      <trkpt lat="49.92408" lon="1.06903">
        <ele>35.29</ele>
        <time>2018-11-02T16:04:49Z</time>
      </trkpt>
      <trkpt lat="49.92411" lon="1.069">
        <ele>34.62</ele>
        <time>2018-11-02T16:04:53Z</time>
      </trkpt>
      <trkpt lat="49.92426" lon="1.06885">
        <ele>35.04</ele>
        <time>2018-11-02T16:05:07Z</time>
      </trkpt>
      <trkpt lat="49.92427" lon="1.06884">
        <ele>35.32</ele>
        <time>2018-11-02T16:05:08Z</time>
      </trkpt>
      <trkpt lat="49.92428" lon="1.06881">
        <ele>35.07</ele>
        <time>2018-11-02T16:05:10Z</time>
      </trkpt>
      <trkpt lat="49.92436" lon="1.06876">
        <ele>34.85</ele>
        <time>2018-11-02T16:05:17Z</time>
      </trkpt>
      <trkpt lat="49.92451" lon="1.06859">
        <ele>35.49</ele>
        <time>2018-11-02T16:05:32Z</time>
      </trkpt>
      <trkpt lat="49.92459" lon="1.06849">
        <ele>36.14</ele>
        <time>2018-11-02T16:05:41Z</time>
      </trkpt>
      <trkpt lat="49.92473" lon="1.06831">
        <ele>37.02</ele>
        <time>2018-11-02T16:05:54Z</time>
      </trkpt>
      <trkpt lat="49.92487" lon="1.06815">
        <ele>37.37</ele>
        <time>2018-11-02T16:06:09Z</time>
      </trkpt>
      <trkpt lat="49.92491" lon="1.06813">
        <ele>38.51</ele>
        <time>2018-11-02T16:06:12Z</time>
      </trkpt>
      <trkpt lat="49.92502" lon="1.06815">
        <ele>37.84</ele>
        <time>2018-11-02T16:06:21Z</time>
      </trkpt>
      <trkpt lat="49.92507" lon="1.06821">
        <ele>38.13</ele>
        <time>2018-11-02T16:06:26Z</time>
      </trkpt>
      <trkpt lat="49.92511" lon="1.06834">
        <ele>38.04</ele>
        <time>2018-11-02T16:06:36Z</time>
      </trkpt>
      <trkpt lat="49.92512" lon="1.06854">
        <ele>38.47</ele>
        <time>2018-11-02T16:06:51Z</time>
      </trkpt>
      <trkpt lat="49.92512" lon="1.06859">
        <ele>38.74</ele>
        <time>2018-11-02T16:07:11Z</time>
      </trkpt>
      <trkpt lat="49.92508" lon="1.06869">
        <ele>36.57</ele>
        <time>2018-11-02T16:07:33Z</time>
      </trkpt>
      <trkpt lat="49.92509" lon="1.06885">
        <ele>35.62</ele>
        <time>2018-11-02T16:07:47Z</time>
      </trkpt>
      <trkpt lat="49.9251" lon="1.06881">
        <ele>35.91</ele>
        <time>2018-11-02T16:08:04Z</time>
      </trkpt>
      <trkpt lat="49.92512" lon="1.06881">
        <ele>35.99</ele>
        <time>2018-11-02T16:08:19Z</time>
      </trkpt>
      <trkpt lat="49.92505" lon="1.06889">
        <ele>35.78</ele>
        <time>2018-11-02T16:08:36Z</time>
      </trkpt>
      <trkpt lat="49.92499" lon="1.06895">
        <ele>35.35</ele>
        <time>2018-11-02T16:08:52Z</time>
      </trkpt>
      <trkpt lat="49.92488" lon="1.06906">
        <ele>35.75</ele>
        <time>2018-11-02T16:09:16Z</time>
      </trkpt>
      <trkpt lat="49.92473" lon="1.06919">
        <ele>34.57</ele>
        <time>2018-11-02T16:09:33Z</time>
      </trkpt>
      <trkpt lat="49.92459" lon="1.06935">
        <ele>34.08</ele>
        <time>2018-11-02T16:09:53Z</time>
      </trkpt>
      <trkpt lat="49.92451" lon="1.06945">
        <ele>33.99</ele>
        <time>2018-11-02T16:10:10Z</time>
      </trkpt>
      <trkpt lat="49.92447" lon="1.06949">
        <ele>33.16</ele>
        <time>2018-11-02T16:10:17Z</time>
      </trkpt>
      <trkpt lat="49.92443" lon="1.06965">
        <ele>32.59</ele>
        <time>2018-11-02T16:10:34Z</time>
      </trkpt>
      <trkpt lat="49.9244" lon="1.06972">
        <ele>30.73</ele>
        <time>2018-11-02T16:10:40Z</time>
      </trkpt>
      <trkpt lat="49.92437" lon="1.06979">
        <ele>29.99</ele>
        <time>2018-11-02T16:10:45Z</time>
      </trkpt>
      <trkpt lat="49.92428" lon="1.06991">
        <ele>29</ele>
        <time>2018-11-02T16:11:00Z</time>
      </trkpt>
      <trkpt lat="49.92417" lon="1.07003">
        <ele>25.93</ele>
        <time>2018-11-02T16:11:14Z</time>
      </trkpt>
      <trkpt lat="49.92403" lon="1.07016">
        <ele>23.88</ele>
        <time>2018-11-02T16:11:32Z</time>
      </trkpt>
      <trkpt lat="49.92386" lon="1.07027">
        <ele>21.18</ele>
        <time>2018-11-02T16:11:48Z</time>
      </trkpt>
      <trkpt lat="49.92386" lon="1.07027">
        <ele>21.23</ele>
        <time>2018-11-02T16:11:49Z</time>
      </trkpt>
      <trkpt lat="49.92376" lon="1.07035">
        <ele>19.06</ele>
        <time>2018-11-02T16:12:03Z</time>
      </trkpt>
      <trkpt lat="49.92363" lon="1.07052">
        <ele>15.89</ele>
        <time>2018-11-02T16:12:19Z</time>
      </trkpt>
      <trkpt lat="49.92352" lon="1.07069">
        <ele>12.24</ele>
        <time>2018-11-02T16:12:36Z</time>
      </trkpt>
      <trkpt lat="49.92351" lon="1.0707">
        <ele>12.2</ele>
        <time>2018-11-02T16:12:37Z</time>
      </trkpt>
      <trkpt lat="49.92344" lon="1.07079">
        <ele>9.06</ele>
        <time>2018-11-02T16:12:52Z</time>
      </trkpt>
      <trkpt lat="49.92334" lon="1.07101">
        <ele>5.96</ele>
        <time>2018-11-02T16:13:12Z</time>
      </trkpt>
      <trkpt lat="49.92333" lon="1.07103">
        <ele>5.62</ele>
        <time>2018-11-02T16:13:14Z</time>
      </trkpt>
      <trkpt lat="49.92324" lon="1.07116">
        <ele>4.38</ele>
        <time>2018-11-02T16:13:28Z</time>
      </trkpt>
      <trkpt lat="49.92323" lon="1.07118">
        <ele>4.39</ele>
        <time>2018-11-02T16:13:30Z</time>
      </trkpt>
      <trkpt lat="49.92318" lon="1.07128">
        <ele>2.25</ele>
        <time>2018-11-02T16:13:36Z</time>
      </trkpt>
      <trkpt lat="49.92317" lon="1.0713">
        <ele>1.82</ele>
        <time>2018-11-02T16:13:37Z</time>
      </trkpt>
      <trkpt lat="49.92307" lon="1.0715">
        <ele>-1.39</ele>
        <time>2018-11-02T16:13:51Z</time>
      </trkpt>
      <trkpt lat="49.92307" lon="1.07156">
        <ele>-1.56</ele>
        <time>2018-11-02T16:13:53Z</time>
      </trkpt>
      <trkpt lat="49.9231" lon="1.07167">
        <ele>-2.12</ele>
        <time>2018-11-02T16:14:12Z</time>
      </trkpt>
      <trkpt lat="49.92312" lon="1.0717">
        <ele>-2.81</ele>
        <time>2018-11-02T16:14:16Z</time>
      </trkpt>
      <trkpt lat="49.92314" lon="1.07172">
        <ele>-3.16</ele>
        <time>2018-11-02T16:14:18Z</time>
      </trkpt>
      <trkpt lat="49.92329" lon="1.0718">
        <ele>-5.01</ele>
        <time>2018-11-02T16:14:33Z</time>
      </trkpt>
      <trkpt lat="49.92339" lon="1.07184">
        <ele>-5.28</ele>
        <time>2018-11-02T16:14:46Z</time>
      </trkpt>
      <trkpt lat="49.92346" lon="1.07186">
        <ele>-6.01</ele>
        <time>2018-11-02T16:14:52Z</time>
      </trkpt>
      <trkpt lat="49.92353" lon="1.07196">
        <ele>-6.52</ele>
        <time>2018-11-02T16:14:57Z</time>
      </trkpt>
      <trkpt lat="49.92357" lon="1.07232">
        <ele>-7.62</ele>
        <time>2018-11-02T16:15:15Z</time>
      </trkpt>
      <trkpt lat="49.92366" lon="1.07234">
        <ele>-7.93</ele>
        <time>2018-11-02T16:15:26Z</time>
      </trkpt>
      <trkpt lat="49.9238" lon="1.07226">
        <ele>-7.7</ele>
        <time>2018-11-02T16:15:43Z</time>
      </trkpt>
      <trkpt lat="49.92397" lon="1.07214">
        <ele>-7.45</ele>
        <time>2018-11-02T16:16:01Z</time>
      </trkpt>
      <trkpt lat="49.92407" lon="1.072">
        <ele>-6.92</ele>
        <time>2018-11-02T16:16:20Z</time>
      </trkpt>
      <trkpt lat="49.92408" lon="1.072">
        <ele>-7</ele>
        <time>2018-11-02T16:16:23Z</time>
      </trkpt>
      <trkpt lat="49.92416" lon="1.07189">
        <ele>-6.35</ele>
        <time>2018-11-02T16:16:31Z</time>
      </trkpt>
      <trkpt lat="49.92442" lon="1.07172">
        <ele>-7</ele>
        <time>2018-11-02T16:16:53Z</time>
      </trkpt>
      <trkpt lat="49.92449" lon="1.07164">
        <ele>-6.09</ele>
        <time>2018-11-02T16:17:03Z</time>
      </trkpt>
      <trkpt lat="49.92471" lon="1.07142">
        <ele>-7.31</ele>
        <time>2018-11-02T16:17:21Z</time>
      </trkpt>
      <trkpt lat="49.9248" lon="1.07132">
        <ele>-7.4</ele>
        <time>2018-11-02T16:17:36Z</time>
      </trkpt>
      <trkpt lat="49.92485" lon="1.07129">
        <ele>-6.91</ele>
        <time>2018-11-02T16:17:39Z</time>
      </trkpt>
      <trkpt lat="49.92515" lon="1.07111">
        <ele>-6.94</ele>
        <time>2018-11-02T16:17:59Z</time>
      </trkpt>
      <trkpt lat="49.92516" lon="1.07109">
        <ele>-7.1</ele>
        <time>2018-11-02T16:18:01Z</time>
      </trkpt>
      <trkpt lat="49.92521" lon="1.07106">
        <ele>-6.77</ele>
        <time>2018-11-02T16:18:05Z</time>
      </trkpt>
      <trkpt lat="49.92528" lon="1.071">
        <ele>-6.9</ele>
        <time>2018-11-02T16:18:11Z</time>
      </trkpt>
      <trkpt lat="49.92533" lon="1.07095">
        <ele>-6.94</ele>
        <time>2018-11-02T16:18:16Z</time>
      </trkpt>
      <trkpt lat="49.92536" lon="1.07091">
        <ele>-6.66</ele>
        <time>2018-11-02T16:18:19Z</time>
      </trkpt>
      <trkpt lat="49.9254" lon="1.07086">
        <ele>-6.61</ele>
        <time>2018-11-02T16:18:23Z</time>
      </trkpt>
      <trkpt lat="49.9255" lon="1.07078">
        <ele>-6.43</ele>
        <time>2018-11-02T16:18:36Z</time>
      </trkpt>
      <trkpt lat="49.92554" lon="1.07074">
        <ele>-6.92</ele>
        <time>2018-11-02T16:18:46Z</time>
      </trkpt>
      <trkpt lat="49.9256" lon="1.07066">
        <ele>-6.61</ele>
        <time>2018-11-02T16:18:53Z</time>
      </trkpt>
      <trkpt lat="49.92569" lon="1.07066">
        <ele>-6.71</ele>
        <time>2018-11-02T16:19:06Z</time>
      </trkpt>
      <trkpt lat="49.92575" lon="1.0707">
        <ele>-6.78</ele>
        <time>2018-11-02T16:19:11Z</time>
      </trkpt>
      <trkpt lat="49.9258" lon="1.07067">
        <ele>-6.71</ele>
        <time>2018-11-02T16:19:16Z</time>
      </trkpt>
      <trkpt lat="49.92584" lon="1.07064">
        <ele>-6.54</ele>
        <time>2018-11-02T16:19:20Z</time>
      </trkpt>
      <trkpt lat="49.92598" lon="1.07052">
        <ele>-6.62</ele>
        <time>2018-11-02T16:19:34Z</time>
      </trkpt>
      <trkpt lat="49.92609" lon="1.07048">
        <ele>-5.78</ele>
        <time>2018-11-02T16:19:45Z</time>
      </trkpt>
      <trkpt lat="49.92615" lon="1.07045">
        <ele>-5.69</ele>
        <time>2018-11-02T16:19:50Z</time>
      </trkpt>
      <trkpt lat="49.92629" lon="1.07034">
        <ele>-5.55</ele>
        <time>2018-11-02T16:20:02Z</time>
      </trkpt>
      <trkpt lat="49.92638" lon="1.07026">
        <ele>-5.78</ele>
        <time>2018-11-02T16:20:15Z</time>
      </trkpt>
      <trkpt lat="49.92644" lon="1.07019">
        <ele>-5.97</ele>
        <time>2018-11-02T16:20:22Z</time>
      </trkpt>
      <trkpt lat="49.92653" lon="1.07012">
        <ele>-5.35</ele>
        <time>2018-11-02T16:20:32Z</time>
      </trkpt>
      <trkpt lat="49.92662" lon="1.07001">
        <ele>-5.72</ele>
        <time>2018-11-02T16:20:47Z</time>
      </trkpt>
      <trkpt lat="49.92666" lon="1.07009">
        <ele>-5.37</ele>
        <time>2018-11-02T16:21:02Z</time>
      </trkpt>
      <trkpt lat="49.92669" lon="1.07016">
        <ele>-5.74</ele>
        <time>2018-11-02T16:21:08Z</time>
      </trkpt>
      <trkpt lat="49.9267" lon="1.07021">
        <ele>-5.68</ele>
        <time>2018-11-02T16:21:12Z</time>
      </trkpt>
      <trkpt lat="49.92672" lon="1.07038">
        <ele>-5.44</ele>
        <time>2018-11-02T16:21:23Z</time>
      </trkpt>
      <trkpt lat="49.92673" lon="1.07058">
        <ele>-5.63</ele>
        <time>2018-11-02T16:21:38Z</time>
      </trkpt>
      <trkpt lat="49.92676" lon="1.07071">
        <ele>-5.58</ele>
        <time>2018-11-02T16:21:54Z</time>
      </trkpt>
      <trkpt lat="49.92678" lon="1.07075">
        <ele>-5.81</ele>
        <time>2018-11-02T16:22:01Z</time>
      </trkpt>
      <trkpt lat="49.92682" lon="1.07091">
        <ele>-5.52</ele>
        <time>2018-11-02T16:22:14Z</time>
      </trkpt>
      <trkpt lat="49.92684" lon="1.07095">
        <ele>-5.23</ele>
        <time>2018-11-02T16:22:17Z</time>
      </trkpt>
      <trkpt lat="49.92693" lon="1.07118">
        <ele>-4.7</ele>
        <time>2018-11-02T16:22:33Z</time>
      </trkpt>
      <trkpt lat="49.92703" lon="1.07143">
        <ele>-4.67</ele>
        <time>2018-11-02T16:22:49Z</time>
      </trkpt>
      <trkpt lat="49.92713" lon="1.07172">
        <ele>-5.44</ele>
        <time>2018-11-02T16:23:07Z</time>
      </trkpt>
      <trkpt lat="49.9272" lon="1.07197">
        <ele>-4.99</ele>
        <time>2018-11-02T16:23:22Z</time>
      </trkpt>
      <trkpt lat="49.92724" lon="1.07212">
        <ele>-4.6</ele>
        <time>2018-11-02T16:23:38Z</time>
      </trkpt>
      <trkpt lat="49.92726" lon="1.07214">
        <ele>-4.64</ele>
        <time>2018-11-02T16:23:41Z</time>
      </trkpt>
      <trkpt lat="49.92727" lon="1.07217">
        <ele>-4.72</ele>
        <time>2018-11-02T16:23:43Z</time>
      </trkpt>
      <trkpt lat="49.92737" lon="1.07244">
        <ele>-4.62</ele>
        <time>2018-11-02T16:24:00Z</time>
      </trkpt>
      <trkpt lat="49.92744" lon="1.07264">
        <ele>-4.63</ele>
        <time>2018-11-02T16:24:13Z</time>
      </trkpt>
      <trkpt lat="49.92751" lon="1.07281">
        <ele>-4.2</ele>
        <time>2018-11-02T16:24:26Z</time>
      </trkpt>
      <trkpt lat="49.92759" lon="1.07304">
        <ele>-5.15</ele>
        <time>2018-11-02T16:24:41Z</time>
      </trkpt>
      <trkpt lat="49.92767" lon="1.07326">
        <ele>-6.1</ele>
        <time>2018-11-02T16:24:55Z</time>
      </trkpt>
      <trkpt lat="49.92768" lon="1.0733">
        <ele>-5.54</ele>
        <time>2018-11-02T16:24:57Z</time>
      </trkpt>
      <trkpt lat="49.92771" lon="1.07344">
        <ele>-6.13</ele>
        <time>2018-11-02T16:25:05Z</time>
      </trkpt>
      <trkpt lat="49.92779" lon="1.07362">
        <ele>-5.81</ele>
        <time>2018-11-02T16:25:16Z</time>
      </trkpt>
      <trkpt lat="49.92789" lon="1.07384">
        <ele>-5.59</ele>
        <time>2018-11-02T16:25:31Z</time>
      </trkpt>
      <trkpt lat="49.92802" lon="1.07416">
        <ele>-6.43</ele>
        <time>2018-11-02T16:25:51Z</time>
      </trkpt>
      <trkpt lat="49.92806" lon="1.07424">
        <ele>-6.22</ele>
        <time>2018-11-02T16:25:57Z</time>
      </trkpt>
      <trkpt lat="49.92807" lon="1.0744">
        <ele>-6.64</ele>
        <time>2018-11-02T16:26:08Z</time>
      </trkpt>
      <trkpt lat="49.92817" lon="1.07458">
        <ele>-6.29</ele>
        <time>2018-11-02T16:26:23Z</time>
      </trkpt>
      <trkpt lat="49.92823" lon="1.07478">
        <ele>-6.04</ele>
        <time>2018-11-02T16:26:39Z</time>
      </trkpt>
      <trkpt lat="49.92824" lon="1.07491">
        <ele>-5.47</ele>
        <time>2018-11-02T16:26:47Z</time>
      </trkpt>
      <trkpt lat="49.92823" lon="1.07495">
        <ele>-5.86</ele>
        <time>2018-11-02T16:26:49Z</time>
      </trkpt>
      <trkpt lat="49.92817" lon="1.07504">
        <ele>-5.6</ele>
        <time>2018-11-02T16:26:56Z</time>
      </trkpt>
      <trkpt lat="49.92804" lon="1.07519">
        <ele>-5.95</ele>
        <time>2018-11-02T16:27:10Z</time>
      </trkpt>
      <trkpt lat="49.92793" lon="1.0753">
        <ele>-5.99</ele>
        <time>2018-11-02T16:27:21Z</time>
      </trkpt>
      <trkpt lat="49.92779" lon="1.07546">
        <ele>-5.53</ele>
        <time>2018-11-02T16:27:36Z</time>
      </trkpt>
      <trkpt lat="49.92774" lon="1.07554">
        <ele>-5.4</ele>
        <time>2018-11-02T16:27:50Z</time>
      </trkpt>
      <trkpt lat="49.92773" lon="1.07555">
        <ele>-5.31</ele>
        <time>2018-11-02T16:27:51Z</time>
      </trkpt>
      <trkpt lat="49.92773" lon="1.07559">
        <ele>-5.64</ele>
        <time>2018-11-02T16:27:53Z</time>
      </trkpt>
      <trkpt lat="49.92772" lon="1.0757">
        <ele>-4.87</ele>
        <time>2018-11-02T16:27:59Z</time>
      </trkpt>
      <trkpt lat="49.92771" lon="1.07575">
        <ele>-4.91</ele>
        <time>2018-11-02T16:28:01Z</time>
      </trkpt>
      <trkpt lat="49.9277" lon="1.07601">
        <ele>-5.4</ele>
        <time>2018-11-02T16:28:15Z</time>
      </trkpt>
      <trkpt lat="49.92769" lon="1.07623">
        <ele>-5.55</ele>
        <time>2018-11-02T16:28:29Z</time>
      </trkpt>
      <trkpt lat="49.92771" lon="1.07646">
        <ele>-5.01</ele>
        <time>2018-11-02T16:28:42Z</time>
      </trkpt>
      <trkpt lat="49.92771" lon="1.07658">
        <ele>-5.1</ele>
        <time>2018-11-02T16:28:57Z</time>
      </trkpt>
    </trkseg>
  </trk>
</gpx>